<?xml version="1.0" encoding="UTF-8" standalone="no" ?>
<gpx xmlns="http://www.topografix.com/GPX/1/1" xmlns:xsi="http://www.w3.org/2001/XMLSchema-instance" xsi:schemaLocation="http://www.topografix.com/GPX/1/1 http://www.topografix.com/GPX/1/1/gpx.xsd" version="1.1" creator="VisuGPX - https://www.visugpx.com">
  <metadata>
    <name>Reconnaissance cartusienne 8kms</name>
    <desc><![CDATA[petit circuit, 2 kms de montée au départ]]></desc>
  </metadata>
  <trk>
    <name><![CDATA[cartusienne]]></name>
    <cmt><![CDATA[jacky, françoise, aline, odile, nadine]]></cmt>
    <trkseg>
      <trkpt lat="45.47898" lon="4.64698">
        <ele>432</ele>
        <time>2013-06-09T07:26:34Z</time>
      </trkpt>
      <trkpt lat="45.47919" lon="4.64724">
        <ele>429</ele>
        <time>2013-06-09T07:26:53Z</time>
      </trkpt>
      <trkpt lat="45.47922" lon="4.64731">
        <ele>429</ele>
        <time>2013-06-09T07:26:56Z</time>
      </trkpt>
      <trkpt lat="45.47924" lon="4.64738">
        <ele>429</ele>
        <time>2013-06-09T07:26:59Z</time>
      </trkpt>
      <trkpt lat="45.47925" lon="4.64746">
        <ele>429</ele>
        <time>2013-06-09T07:27:02Z</time>
      </trkpt>
      <trkpt lat="45.47926" lon="4.64754">
        <ele>429</ele>
        <time>2013-06-09T07:27:05Z</time>
      </trkpt>
      <trkpt lat="45.47927" lon="4.64762">
        <ele>429</ele>
        <time>2013-06-09T07:27:08Z</time>
      </trkpt>
      <trkpt lat="45.47929" lon="4.64769">
        <ele>429</ele>
        <time>2013-06-09T07:27:11Z</time>
      </trkpt>
      <trkpt lat="45.4793" lon="4.64776">
        <ele>429</ele>
        <time>2013-06-09T07:27:14Z</time>
      </trkpt>
      <trkpt lat="45.4793" lon="4.64783">
        <ele>429</ele>
        <time>2013-06-09T07:27:17Z</time>
      </trkpt>
      <trkpt lat="45.47932" lon="4.6479">
        <ele>430</ele>
        <time>2013-06-09T07:27:20Z</time>
      </trkpt>
      <trkpt lat="45.47934" lon="4.64797">
        <ele>431</ele>
        <time>2013-06-09T07:27:23Z</time>
      </trkpt>
      <trkpt lat="45.47935" lon="4.64805">
        <ele>433</ele>
        <time>2013-06-09T07:27:26Z</time>
      </trkpt>
      <trkpt lat="45.47937" lon="4.64813">
        <ele>433</ele>
        <time>2013-06-09T07:27:29Z</time>
      </trkpt>
      <trkpt lat="45.4794" lon="4.6482">
        <ele>435</ele>
        <time>2013-06-09T07:27:32Z</time>
      </trkpt>
      <trkpt lat="45.47944" lon="4.64827">
        <ele>438</ele>
        <time>2013-06-09T07:27:35Z</time>
      </trkpt>
      <trkpt lat="45.47945" lon="4.64837">
        <ele>438</ele>
        <time>2013-06-09T07:27:39Z</time>
      </trkpt>
      <trkpt lat="45.47945" lon="4.64843">
        <ele>438</ele>
        <time>2013-06-09T07:27:42Z</time>
      </trkpt>
      <trkpt lat="45.47946" lon="4.64851">
        <ele>438</ele>
        <time>2013-06-09T07:27:45Z</time>
      </trkpt>
      <trkpt lat="45.47946" lon="4.64857">
        <ele>439</ele>
        <time>2013-06-09T07:27:48Z</time>
      </trkpt>
      <trkpt lat="45.4794" lon="4.64855">
        <ele>439</ele>
        <time>2013-06-09T07:27:51Z</time>
      </trkpt>
      <trkpt lat="45.47936" lon="4.64852">
        <ele>439</ele>
        <time>2013-06-09T07:27:54Z</time>
      </trkpt>
      <trkpt lat="45.47933" lon="4.64848">
        <ele>439</ele>
        <time>2013-06-09T07:27:57Z</time>
      </trkpt>
      <trkpt lat="45.47929" lon="4.64845">
        <ele>439</ele>
        <time>2013-06-09T07:28:00Z</time>
      </trkpt>
      <trkpt lat="45.47925" lon="4.64841">
        <ele>439</ele>
        <time>2013-06-09T07:28:03Z</time>
      </trkpt>
      <trkpt lat="45.47922" lon="4.64838">
        <ele>439</ele>
        <time>2013-06-09T07:28:06Z</time>
      </trkpt>
      <trkpt lat="45.47919" lon="4.64834">
        <ele>439</ele>
        <time>2013-06-09T07:28:09Z</time>
      </trkpt>
      <trkpt lat="45.47915" lon="4.64829">
        <ele>439</ele>
        <time>2013-06-09T07:28:12Z</time>
      </trkpt>
      <trkpt lat="45.47911" lon="4.64825">
        <ele>440</ele>
        <time>2013-06-09T07:28:15Z</time>
      </trkpt>
      <trkpt lat="45.47906" lon="4.64824">
        <ele>441</ele>
        <time>2013-06-09T07:28:18Z</time>
      </trkpt>
      <trkpt lat="45.47903" lon="4.64829">
        <ele>442</ele>
        <time>2013-06-09T07:28:22Z</time>
      </trkpt>
      <trkpt lat="45.47901" lon="4.64835">
        <ele>444</ele>
        <time>2013-06-09T07:28:25Z</time>
      </trkpt>
      <trkpt lat="45.479" lon="4.64841">
        <ele>445</ele>
        <time>2013-06-09T07:28:28Z</time>
      </trkpt>
      <trkpt lat="45.47899" lon="4.64847">
        <ele>445</ele>
        <time>2013-06-09T07:28:31Z</time>
      </trkpt>
      <trkpt lat="45.47897" lon="4.64851">
        <ele>445</ele>
        <time>2013-06-09T07:28:34Z</time>
      </trkpt>
      <trkpt lat="45.47895" lon="4.64856">
        <ele>445</ele>
        <time>2013-06-09T07:28:37Z</time>
      </trkpt>
      <trkpt lat="45.47892" lon="4.64862">
        <ele>446</ele>
        <time>2013-06-09T07:28:40Z</time>
      </trkpt>
      <trkpt lat="45.47889" lon="4.64867">
        <ele>446</ele>
        <time>2013-06-09T07:28:43Z</time>
      </trkpt>
      <trkpt lat="45.47886" lon="4.64872">
        <ele>446</ele>
        <time>2013-06-09T07:28:46Z</time>
      </trkpt>
      <trkpt lat="45.47882" lon="4.6488">
        <ele>447</ele>
        <time>2013-06-09T07:28:49Z</time>
      </trkpt>
      <trkpt lat="45.47881" lon="4.64884">
        <ele>449</ele>
        <time>2013-06-09T07:28:54Z</time>
      </trkpt>
      <trkpt lat="45.47879" lon="4.64889">
        <ele>450</ele>
        <time>2013-06-09T07:28:58Z</time>
      </trkpt>
      <trkpt lat="45.47876" lon="4.64893">
        <ele>450</ele>
        <time>2013-06-09T07:29:01Z</time>
      </trkpt>
      <trkpt lat="45.47874" lon="4.64897">
        <ele>451</ele>
        <time>2013-06-09T07:29:04Z</time>
      </trkpt>
      <trkpt lat="45.47869" lon="4.64902">
        <ele>452</ele>
        <time>2013-06-09T07:29:07Z</time>
      </trkpt>
      <trkpt lat="45.47865" lon="4.64906">
        <ele>452</ele>
        <time>2013-06-09T07:29:10Z</time>
      </trkpt>
      <trkpt lat="45.47861" lon="4.6491">
        <ele>453</ele>
        <time>2013-06-09T07:29:13Z</time>
      </trkpt>
      <trkpt lat="45.47857" lon="4.64914">
        <ele>453</ele>
        <time>2013-06-09T07:29:16Z</time>
      </trkpt>
      <trkpt lat="45.47852" lon="4.64918">
        <ele>454</ele>
        <time>2013-06-09T07:29:19Z</time>
      </trkpt>
      <trkpt lat="45.47848" lon="4.64922">
        <ele>454</ele>
        <time>2013-06-09T07:29:22Z</time>
      </trkpt>
      <trkpt lat="45.47843" lon="4.64925">
        <ele>455</ele>
        <time>2013-06-09T07:29:25Z</time>
      </trkpt>
      <trkpt lat="45.47837" lon="4.64929">
        <ele>455</ele>
        <time>2013-06-09T07:29:28Z</time>
      </trkpt>
      <trkpt lat="45.47833" lon="4.64933">
        <ele>455</ele>
        <time>2013-06-09T07:29:31Z</time>
      </trkpt>
      <trkpt lat="45.47829" lon="4.64937">
        <ele>456</ele>
        <time>2013-06-09T07:29:34Z</time>
      </trkpt>
      <trkpt lat="45.47826" lon="4.64942">
        <ele>457</ele>
        <time>2013-06-09T07:29:37Z</time>
      </trkpt>
      <trkpt lat="45.47826" lon="4.6495">
        <ele>458</ele>
        <time>2013-06-09T07:29:40Z</time>
      </trkpt>
      <trkpt lat="45.47827" lon="4.64954">
        <ele>459</ele>
        <time>2013-06-09T07:29:43Z</time>
      </trkpt>
      <trkpt lat="45.47828" lon="4.6496">
        <ele>460</ele>
        <time>2013-06-09T07:29:46Z</time>
      </trkpt>
      <trkpt lat="45.47828" lon="4.64965">
        <ele>461</ele>
        <time>2013-06-09T07:29:49Z</time>
      </trkpt>
      <trkpt lat="45.47829" lon="4.64971">
        <ele>463</ele>
        <time>2013-06-09T07:29:53Z</time>
      </trkpt>
      <trkpt lat="45.4783" lon="4.64976">
        <ele>464</ele>
        <time>2013-06-09T07:29:56Z</time>
      </trkpt>
      <trkpt lat="45.47831" lon="4.64981">
        <ele>465</ele>
        <time>2013-06-09T07:29:59Z</time>
      </trkpt>
      <trkpt lat="45.47832" lon="4.64986">
        <ele>465</ele>
        <time>2013-06-09T07:30:02Z</time>
      </trkpt>
      <trkpt lat="45.47832" lon="4.64992">
        <ele>466</ele>
        <time>2013-06-09T07:30:05Z</time>
      </trkpt>
      <trkpt lat="45.47833" lon="4.64997">
        <ele>466</ele>
        <time>2013-06-09T07:30:08Z</time>
      </trkpt>
      <trkpt lat="45.47833" lon="4.65002">
        <ele>466</ele>
        <time>2013-06-09T07:30:11Z</time>
      </trkpt>
      <trkpt lat="45.47834" lon="4.65007">
        <ele>467</ele>
        <time>2013-06-09T07:30:14Z</time>
      </trkpt>
      <trkpt lat="45.47834" lon="4.65015">
        <ele>467</ele>
        <time>2013-06-09T07:30:18Z</time>
      </trkpt>
      <trkpt lat="45.47835" lon="4.6502">
        <ele>467</ele>
        <time>2013-06-09T07:30:21Z</time>
      </trkpt>
      <trkpt lat="45.47835" lon="4.65027">
        <ele>469</ele>
        <time>2013-06-09T07:30:24Z</time>
      </trkpt>
      <trkpt lat="45.47836" lon="4.65032">
        <ele>470</ele>
        <time>2013-06-09T07:30:27Z</time>
      </trkpt>
      <trkpt lat="45.47836" lon="4.65037">
        <ele>470</ele>
        <time>2013-06-09T07:30:30Z</time>
      </trkpt>
      <trkpt lat="45.47837" lon="4.65042">
        <ele>471</ele>
        <time>2013-06-09T07:30:33Z</time>
      </trkpt>
      <trkpt lat="45.47838" lon="4.65048">
        <ele>472</ele>
        <time>2013-06-09T07:30:36Z</time>
      </trkpt>
      <trkpt lat="45.47839" lon="4.65054">
        <ele>473</ele>
        <time>2013-06-09T07:30:39Z</time>
      </trkpt>
      <trkpt lat="45.47839" lon="4.65059">
        <ele>474</ele>
        <time>2013-06-09T07:30:42Z</time>
      </trkpt>
      <trkpt lat="45.4784" lon="4.65064">
        <ele>475</ele>
        <time>2013-06-09T07:30:45Z</time>
      </trkpt>
      <trkpt lat="45.47841" lon="4.65069">
        <ele>475</ele>
        <time>2013-06-09T07:30:48Z</time>
      </trkpt>
      <trkpt lat="45.47842" lon="4.65074">
        <ele>476</ele>
        <time>2013-06-09T07:30:51Z</time>
      </trkpt>
      <trkpt lat="45.47844" lon="4.65079">
        <ele>477</ele>
        <time>2013-06-09T07:30:54Z</time>
      </trkpt>
      <trkpt lat="45.47845" lon="4.65085">
        <ele>479</ele>
        <time>2013-06-09T07:30:57Z</time>
      </trkpt>
      <trkpt lat="45.47847" lon="4.6509">
        <ele>479</ele>
        <time>2013-06-09T07:31:00Z</time>
      </trkpt>
      <trkpt lat="45.47848" lon="4.65096">
        <ele>480</ele>
        <time>2013-06-09T07:31:03Z</time>
      </trkpt>
      <trkpt lat="45.47849" lon="4.65101">
        <ele>481</ele>
        <time>2013-06-09T07:31:06Z</time>
      </trkpt>
      <trkpt lat="45.4785" lon="4.65108">
        <ele>481</ele>
        <time>2013-06-09T07:31:09Z</time>
      </trkpt>
      <trkpt lat="45.4785" lon="4.65114">
        <ele>482</ele>
        <time>2013-06-09T07:31:12Z</time>
      </trkpt>
      <trkpt lat="45.4785" lon="4.65119">
        <ele>482</ele>
        <time>2013-06-09T07:31:15Z</time>
      </trkpt>
      <trkpt lat="45.47849" lon="4.65124">
        <ele>482</ele>
        <time>2013-06-09T07:31:18Z</time>
      </trkpt>
      <trkpt lat="45.47849" lon="4.65129">
        <ele>482</ele>
        <time>2013-06-09T07:31:21Z</time>
      </trkpt>
      <trkpt lat="45.47848" lon="4.65134">
        <ele>482</ele>
        <time>2013-06-09T07:31:24Z</time>
      </trkpt>
      <trkpt lat="45.47848" lon="4.65139">
        <ele>482</ele>
        <time>2013-06-09T07:31:27Z</time>
      </trkpt>
      <trkpt lat="45.47847" lon="4.65143">
        <ele>482</ele>
        <time>2013-06-09T07:31:30Z</time>
      </trkpt>
      <trkpt lat="45.47847" lon="4.65148">
        <ele>482</ele>
        <time>2013-06-09T07:31:33Z</time>
      </trkpt>
      <trkpt lat="45.47846" lon="4.65155">
        <ele>483</ele>
        <time>2013-06-09T07:31:37Z</time>
      </trkpt>
      <trkpt lat="45.47846" lon="4.65161">
        <ele>484</ele>
        <time>2013-06-09T07:31:40Z</time>
      </trkpt>
      <trkpt lat="45.47846" lon="4.65165">
        <ele>484</ele>
        <time>2013-06-09T07:31:43Z</time>
      </trkpt>
      <trkpt lat="45.47845" lon="4.65171">
        <ele>485</ele>
        <time>2013-06-09T07:31:46Z</time>
      </trkpt>
      <trkpt lat="45.47845" lon="4.65176">
        <ele>485</ele>
        <time>2013-06-09T07:31:49Z</time>
      </trkpt>
      <trkpt lat="45.47844" lon="4.65182">
        <ele>486</ele>
        <time>2013-06-09T07:31:52Z</time>
      </trkpt>
      <trkpt lat="45.47844" lon="4.65188">
        <ele>487</ele>
        <time>2013-06-09T07:31:56Z</time>
      </trkpt>
      <trkpt lat="45.47844" lon="4.65194">
        <ele>487</ele>
        <time>2013-06-09T07:32:00Z</time>
      </trkpt>
      <trkpt lat="45.47843" lon="4.652">
        <ele>488</ele>
        <time>2013-06-09T07:32:03Z</time>
      </trkpt>
      <trkpt lat="45.47843" lon="4.65206">
        <ele>488</ele>
        <time>2013-06-09T07:32:07Z</time>
      </trkpt>
      <trkpt lat="45.47843" lon="4.65211">
        <ele>489</ele>
        <time>2013-06-09T07:32:10Z</time>
      </trkpt>
      <trkpt lat="45.47842" lon="4.65216">
        <ele>489</ele>
        <time>2013-06-09T07:32:13Z</time>
      </trkpt>
      <trkpt lat="45.47842" lon="4.65221">
        <ele>490</ele>
        <time>2013-06-09T07:32:16Z</time>
      </trkpt>
      <trkpt lat="45.47842" lon="4.65226">
        <ele>490</ele>
        <time>2013-06-09T07:32:19Z</time>
      </trkpt>
      <trkpt lat="45.47842" lon="4.65232">
        <ele>491</ele>
        <time>2013-06-09T07:32:22Z</time>
      </trkpt>
      <trkpt lat="45.47842" lon="4.65237">
        <ele>491</ele>
        <time>2013-06-09T07:32:25Z</time>
      </trkpt>
      <trkpt lat="45.47842" lon="4.65241">
        <ele>492</ele>
        <time>2013-06-09T07:32:28Z</time>
      </trkpt>
      <trkpt lat="45.47842" lon="4.65246">
        <ele>492</ele>
        <time>2013-06-09T07:32:31Z</time>
      </trkpt>
      <trkpt lat="45.47841" lon="4.65251">
        <ele>492</ele>
        <time>2013-06-09T07:32:34Z</time>
      </trkpt>
      <trkpt lat="45.47841" lon="4.65256">
        <ele>492</ele>
        <time>2013-06-09T07:32:37Z</time>
      </trkpt>
      <trkpt lat="45.4784" lon="4.65262">
        <ele>493</ele>
        <time>2013-06-09T07:32:40Z</time>
      </trkpt>
      <trkpt lat="45.4784" lon="4.65267">
        <ele>494</ele>
        <time>2013-06-09T07:32:43Z</time>
      </trkpt>
      <trkpt lat="45.47839" lon="4.65272">
        <ele>494</ele>
        <time>2013-06-09T07:32:46Z</time>
      </trkpt>
      <trkpt lat="45.47839" lon="4.65277">
        <ele>495</ele>
        <time>2013-06-09T07:32:49Z</time>
      </trkpt>
      <trkpt lat="45.47838" lon="4.65282">
        <ele>495</ele>
        <time>2013-06-09T07:32:52Z</time>
      </trkpt>
      <trkpt lat="45.47837" lon="4.65287">
        <ele>496</ele>
        <time>2013-06-09T07:32:55Z</time>
      </trkpt>
      <trkpt lat="45.47837" lon="4.65292">
        <ele>496</ele>
        <time>2013-06-09T07:32:58Z</time>
      </trkpt>
      <trkpt lat="45.47836" lon="4.65297">
        <ele>497</ele>
        <time>2013-06-09T07:33:01Z</time>
      </trkpt>
      <trkpt lat="45.47836" lon="4.65301">
        <ele>497</ele>
        <time>2013-06-09T07:33:04Z</time>
      </trkpt>
      <trkpt lat="45.47836" lon="4.65306">
        <ele>498</ele>
        <time>2013-06-09T07:33:07Z</time>
      </trkpt>
      <trkpt lat="45.47836" lon="4.6531">
        <ele>498</ele>
        <time>2013-06-09T07:33:10Z</time>
      </trkpt>
      <trkpt lat="45.47836" lon="4.65314">
        <ele>498</ele>
        <time>2013-06-09T07:33:13Z</time>
      </trkpt>
      <trkpt lat="45.47836" lon="4.6532">
        <ele>499</ele>
        <time>2013-06-09T07:33:17Z</time>
      </trkpt>
      <trkpt lat="45.47836" lon="4.65325">
        <ele>499</ele>
        <time>2013-06-09T07:33:20Z</time>
      </trkpt>
      <trkpt lat="45.47836" lon="4.6533">
        <ele>499</ele>
        <time>2013-06-09T07:33:23Z</time>
      </trkpt>
      <trkpt lat="45.47836" lon="4.65335">
        <ele>500</ele>
        <time>2013-06-09T07:33:26Z</time>
      </trkpt>
      <trkpt lat="45.47836" lon="4.65341">
        <ele>500</ele>
        <time>2013-06-09T07:33:29Z</time>
      </trkpt>
      <trkpt lat="45.47835" lon="4.65347">
        <ele>501</ele>
        <time>2013-06-09T07:33:32Z</time>
      </trkpt>
      <trkpt lat="45.47834" lon="4.65356">
        <ele>502</ele>
        <time>2013-06-09T07:33:35Z</time>
      </trkpt>
      <trkpt lat="45.47834" lon="4.65364">
        <ele>504</ele>
        <time>2013-06-09T07:33:38Z</time>
      </trkpt>
      <trkpt lat="45.47834" lon="4.65371">
        <ele>505</ele>
        <time>2013-06-09T07:33:41Z</time>
      </trkpt>
      <trkpt lat="45.47833" lon="4.65376">
        <ele>505</ele>
        <time>2013-06-09T07:33:44Z</time>
      </trkpt>
      <trkpt lat="45.47833" lon="4.65381">
        <ele>506</ele>
        <time>2013-06-09T07:33:47Z</time>
      </trkpt>
      <trkpt lat="45.47831" lon="4.65386">
        <ele>507</ele>
        <time>2013-06-09T07:33:50Z</time>
      </trkpt>
      <trkpt lat="45.47831" lon="4.65392">
        <ele>507</ele>
        <time>2013-06-09T07:33:53Z</time>
      </trkpt>
      <trkpt lat="45.47829" lon="4.65397">
        <ele>507</ele>
        <time>2013-06-09T07:33:56Z</time>
      </trkpt>
      <trkpt lat="45.47828" lon="4.65403">
        <ele>508</ele>
        <time>2013-06-09T07:33:59Z</time>
      </trkpt>
      <trkpt lat="45.47827" lon="4.65409">
        <ele>509</ele>
        <time>2013-06-09T07:34:02Z</time>
      </trkpt>
      <trkpt lat="45.47826" lon="4.65414">
        <ele>510</ele>
        <time>2013-06-09T07:34:05Z</time>
      </trkpt>
      <trkpt lat="45.47825" lon="4.65419">
        <ele>511</ele>
        <time>2013-06-09T07:34:08Z</time>
      </trkpt>
      <trkpt lat="45.47824" lon="4.65424">
        <ele>512</ele>
        <time>2013-06-09T07:34:11Z</time>
      </trkpt>
      <trkpt lat="45.47823" lon="4.65429">
        <ele>512</ele>
        <time>2013-06-09T07:34:14Z</time>
      </trkpt>
      <trkpt lat="45.47821" lon="4.65437">
        <ele>515</ele>
        <time>2013-06-09T07:34:18Z</time>
      </trkpt>
      <trkpt lat="45.47821" lon="4.65442">
        <ele>516</ele>
        <time>2013-06-09T07:34:21Z</time>
      </trkpt>
      <trkpt lat="45.47819" lon="4.65449">
        <ele>518</ele>
        <time>2013-06-09T07:34:24Z</time>
      </trkpt>
      <trkpt lat="45.47818" lon="4.65456">
        <ele>519</ele>
        <time>2013-06-09T07:34:27Z</time>
      </trkpt>
      <trkpt lat="45.47815" lon="4.65462">
        <ele>521</ele>
        <time>2013-06-09T07:34:30Z</time>
      </trkpt>
      <trkpt lat="45.47814" lon="4.6547">
        <ele>522</ele>
        <time>2013-06-09T07:34:33Z</time>
      </trkpt>
      <trkpt lat="45.47812" lon="4.65476">
        <ele>523</ele>
        <time>2013-06-09T07:34:36Z</time>
      </trkpt>
      <trkpt lat="45.4781" lon="4.65483">
        <ele>524</ele>
        <time>2013-06-09T07:34:39Z</time>
      </trkpt>
      <trkpt lat="45.47805" lon="4.65491">
        <ele>524</ele>
        <time>2013-06-09T07:34:42Z</time>
      </trkpt>
      <trkpt lat="45.47801" lon="4.65497">
        <ele>524</ele>
        <time>2013-06-09T07:34:45Z</time>
      </trkpt>
      <trkpt lat="45.47796" lon="4.65502">
        <ele>524</ele>
        <time>2013-06-09T07:34:48Z</time>
      </trkpt>
      <trkpt lat="45.47792" lon="4.65509">
        <ele>524</ele>
        <time>2013-06-09T07:34:51Z</time>
      </trkpt>
      <trkpt lat="45.47788" lon="4.65517">
        <ele>524</ele>
        <time>2013-06-09T07:34:54Z</time>
      </trkpt>
      <trkpt lat="45.47784" lon="4.65524">
        <ele>524</ele>
        <time>2013-06-09T07:34:57Z</time>
      </trkpt>
      <trkpt lat="45.47781" lon="4.65532">
        <ele>524</ele>
        <time>2013-06-09T07:35:00Z</time>
      </trkpt>
      <trkpt lat="45.47777" lon="4.6554">
        <ele>524</ele>
        <time>2013-06-09T07:35:03Z</time>
      </trkpt>
      <trkpt lat="45.47773" lon="4.65548">
        <ele>524</ele>
        <time>2013-06-09T07:35:06Z</time>
      </trkpt>
      <trkpt lat="45.47769" lon="4.65556">
        <ele>524</ele>
        <time>2013-06-09T07:35:09Z</time>
      </trkpt>
      <trkpt lat="45.47765" lon="4.65565">
        <ele>524</ele>
        <time>2013-06-09T07:35:12Z</time>
      </trkpt>
      <trkpt lat="45.47761" lon="4.65574">
        <ele>524</ele>
        <time>2013-06-09T07:35:15Z</time>
      </trkpt>
      <trkpt lat="45.47757" lon="4.65582">
        <ele>524</ele>
        <time>2013-06-09T07:35:18Z</time>
      </trkpt>
      <trkpt lat="45.47753" lon="4.6559">
        <ele>524</ele>
        <time>2013-06-09T07:35:21Z</time>
      </trkpt>
      <trkpt lat="45.47748" lon="4.65598">
        <ele>524</ele>
        <time>2013-06-09T07:35:24Z</time>
      </trkpt>
      <trkpt lat="45.47744" lon="4.65607">
        <ele>524</ele>
        <time>2013-06-09T07:35:27Z</time>
      </trkpt>
      <trkpt lat="45.47739" lon="4.65616">
        <ele>524</ele>
        <time>2013-06-09T07:35:30Z</time>
      </trkpt>
      <trkpt lat="45.47735" lon="4.65624">
        <ele>524</ele>
        <time>2013-06-09T07:35:33Z</time>
      </trkpt>
      <trkpt lat="45.4773" lon="4.65632">
        <ele>524</ele>
        <time>2013-06-09T07:35:36Z</time>
      </trkpt>
      <trkpt lat="45.47726" lon="4.65641">
        <ele>524</ele>
        <time>2013-06-09T07:35:39Z</time>
      </trkpt>
      <trkpt lat="45.47721" lon="4.65649">
        <ele>523</ele>
        <time>2013-06-09T07:35:42Z</time>
      </trkpt>
      <trkpt lat="45.47717" lon="4.65659">
        <ele>522</ele>
        <time>2013-06-09T07:35:45Z</time>
      </trkpt>
      <trkpt lat="45.47712" lon="4.65666">
        <ele>520</ele>
        <time>2013-06-09T07:35:48Z</time>
      </trkpt>
      <trkpt lat="45.47707" lon="4.65675">
        <ele>519</ele>
        <time>2013-06-09T07:35:51Z</time>
      </trkpt>
      <trkpt lat="45.47703" lon="4.65684">
        <ele>518</ele>
        <time>2013-06-09T07:35:54Z</time>
      </trkpt>
      <trkpt lat="45.47698" lon="4.65692">
        <ele>518</ele>
        <time>2013-06-09T07:35:57Z</time>
      </trkpt>
      <trkpt lat="45.47694" lon="4.65703">
        <ele>518</ele>
        <time>2013-06-09T07:36:00Z</time>
      </trkpt>
      <trkpt lat="45.47689" lon="4.65713">
        <ele>518</ele>
        <time>2013-06-09T07:36:03Z</time>
      </trkpt>
      <trkpt lat="45.47686" lon="4.65725">
        <ele>518</ele>
        <time>2013-06-09T07:36:06Z</time>
      </trkpt>
      <trkpt lat="45.47684" lon="4.65737">
        <ele>518</ele>
        <time>2013-06-09T07:36:09Z</time>
      </trkpt>
      <trkpt lat="45.47684" lon="4.65749">
        <ele>518</ele>
        <time>2013-06-09T07:36:12Z</time>
      </trkpt>
      <trkpt lat="45.47683" lon="4.65761">
        <ele>518</ele>
        <time>2013-06-09T07:36:15Z</time>
      </trkpt>
      <trkpt lat="45.47683" lon="4.65772">
        <ele>518</ele>
        <time>2013-06-09T07:36:18Z</time>
      </trkpt>
      <trkpt lat="45.47682" lon="4.65782">
        <ele>518</ele>
        <time>2013-06-09T07:36:21Z</time>
      </trkpt>
      <trkpt lat="45.4768" lon="4.65793">
        <ele>518</ele>
        <time>2013-06-09T07:36:24Z</time>
      </trkpt>
      <trkpt lat="45.47679" lon="4.65803">
        <ele>518</ele>
        <time>2013-06-09T07:36:27Z</time>
      </trkpt>
      <trkpt lat="45.47678" lon="4.65813">
        <ele>518</ele>
        <time>2013-06-09T07:36:30Z</time>
      </trkpt>
      <trkpt lat="45.47676" lon="4.65824">
        <ele>518</ele>
        <time>2013-06-09T07:36:33Z</time>
      </trkpt>
      <trkpt lat="45.47672" lon="4.65834">
        <ele>518</ele>
        <time>2013-06-09T07:36:36Z</time>
      </trkpt>
      <trkpt lat="45.47668" lon="4.65846">
        <ele>518</ele>
        <time>2013-06-09T07:36:39Z</time>
      </trkpt>
      <trkpt lat="45.47663" lon="4.65856">
        <ele>518</ele>
        <time>2013-06-09T07:36:42Z</time>
      </trkpt>
      <trkpt lat="45.47659" lon="4.65865">
        <ele>518</ele>
        <time>2013-06-09T07:36:45Z</time>
      </trkpt>
      <trkpt lat="45.47654" lon="4.65875">
        <ele>518</ele>
        <time>2013-06-09T07:36:48Z</time>
      </trkpt>
      <trkpt lat="45.47648" lon="4.65884">
        <ele>518</ele>
        <time>2013-06-09T07:36:51Z</time>
      </trkpt>
      <trkpt lat="45.47639" lon="4.65885">
        <ele>518</ele>
        <time>2013-06-09T07:36:54Z</time>
      </trkpt>
      <trkpt lat="45.47632" lon="4.65885">
        <ele>518</ele>
        <time>2013-06-09T07:36:57Z</time>
      </trkpt>
      <trkpt lat="45.47626" lon="4.65886">
        <ele>518</ele>
        <time>2013-06-09T07:37:00Z</time>
      </trkpt>
      <trkpt lat="45.47619" lon="4.65885">
        <ele>518</ele>
        <time>2013-06-09T07:37:03Z</time>
      </trkpt>
      <trkpt lat="45.47612" lon="4.65883">
        <ele>518</ele>
        <time>2013-06-09T07:37:06Z</time>
      </trkpt>
      <trkpt lat="45.47607" lon="4.65883">
        <ele>518</ele>
        <time>2013-06-09T07:37:09Z</time>
      </trkpt>
      <trkpt lat="45.476" lon="4.65882">
        <ele>518</ele>
        <time>2013-06-09T07:37:12Z</time>
      </trkpt>
      <trkpt lat="45.47593" lon="4.65879">
        <ele>518</ele>
        <time>2013-06-09T07:37:15Z</time>
      </trkpt>
      <trkpt lat="45.47586" lon="4.65876">
        <ele>519</ele>
        <time>2013-06-09T07:37:18Z</time>
      </trkpt>
      <trkpt lat="45.4758" lon="4.65873">
        <ele>520</ele>
        <time>2013-06-09T07:37:21Z</time>
      </trkpt>
      <trkpt lat="45.47574" lon="4.65872">
        <ele>520</ele>
        <time>2013-06-09T07:37:24Z</time>
      </trkpt>
      <trkpt lat="45.4757" lon="4.65871">
        <ele>522</ele>
        <time>2013-06-09T07:37:27Z</time>
      </trkpt>
      <trkpt lat="45.47564" lon="4.65872">
        <ele>523</ele>
        <time>2013-06-09T07:37:31Z</time>
      </trkpt>
      <trkpt lat="45.47555" lon="4.65872">
        <ele>524</ele>
        <time>2013-06-09T07:37:34Z</time>
      </trkpt>
      <trkpt lat="45.47549" lon="4.65872">
        <ele>524</ele>
        <time>2013-06-09T07:37:37Z</time>
      </trkpt>
      <trkpt lat="45.47543" lon="4.65871">
        <ele>524</ele>
        <time>2013-06-09T07:37:40Z</time>
      </trkpt>
      <trkpt lat="45.47537" lon="4.65871">
        <ele>525</ele>
        <time>2013-06-09T07:37:43Z</time>
      </trkpt>
      <trkpt lat="45.47531" lon="4.65871">
        <ele>525</ele>
        <time>2013-06-09T07:37:46Z</time>
      </trkpt>
      <trkpt lat="45.47525" lon="4.65873">
        <ele>525</ele>
        <time>2013-06-09T07:37:49Z</time>
      </trkpt>
      <trkpt lat="45.47518" lon="4.65875">
        <ele>526</ele>
        <time>2013-06-09T07:37:52Z</time>
      </trkpt>
      <trkpt lat="45.47512" lon="4.65878">
        <ele>526</ele>
        <time>2013-06-09T07:37:55Z</time>
      </trkpt>
      <trkpt lat="45.47506" lon="4.6588">
        <ele>526</ele>
        <time>2013-06-09T07:37:58Z</time>
      </trkpt>
      <trkpt lat="45.47501" lon="4.65882">
        <ele>527</ele>
        <time>2013-06-09T07:38:01Z</time>
      </trkpt>
      <trkpt lat="45.47495" lon="4.65885">
        <ele>529</ele>
        <time>2013-06-09T07:38:04Z</time>
      </trkpt>
      <trkpt lat="45.4749" lon="4.65889">
        <ele>529</ele>
        <time>2013-06-09T07:38:07Z</time>
      </trkpt>
      <trkpt lat="45.47484" lon="4.65893">
        <ele>530</ele>
        <time>2013-06-09T07:38:10Z</time>
      </trkpt>
      <trkpt lat="45.47479" lon="4.65897">
        <ele>531</ele>
        <time>2013-06-09T07:38:13Z</time>
      </trkpt>
      <trkpt lat="45.47475" lon="4.65902">
        <ele>532</ele>
        <time>2013-06-09T07:38:16Z</time>
      </trkpt>
      <trkpt lat="45.47473" lon="4.65908">
        <ele>533</ele>
        <time>2013-06-09T07:38:20Z</time>
      </trkpt>
      <trkpt lat="45.47471" lon="4.65912">
        <ele>533</ele>
        <time>2013-06-09T07:38:24Z</time>
      </trkpt>
      <trkpt lat="45.47469" lon="4.65917">
        <ele>533</ele>
        <time>2013-06-09T07:38:27Z</time>
      </trkpt>
      <trkpt lat="45.47467" lon="4.65922">
        <ele>533</ele>
        <time>2013-06-09T07:38:30Z</time>
      </trkpt>
      <trkpt lat="45.47466" lon="4.65928">
        <ele>533</ele>
        <time>2013-06-09T07:38:33Z</time>
      </trkpt>
      <trkpt lat="45.47465" lon="4.65935">
        <ele>534</ele>
        <time>2013-06-09T07:38:36Z</time>
      </trkpt>
      <trkpt lat="45.47464" lon="4.65942">
        <ele>534</ele>
        <time>2013-06-09T07:38:39Z</time>
      </trkpt>
      <trkpt lat="45.47463" lon="4.65949">
        <ele>535</ele>
        <time>2013-06-09T07:38:42Z</time>
      </trkpt>
      <trkpt lat="45.47462" lon="4.65956">
        <ele>536</ele>
        <time>2013-06-09T07:38:45Z</time>
      </trkpt>
      <trkpt lat="45.47461" lon="4.65963">
        <ele>536</ele>
        <time>2013-06-09T07:38:48Z</time>
      </trkpt>
      <trkpt lat="45.4746" lon="4.6597">
        <ele>537</ele>
        <time>2013-06-09T07:38:51Z</time>
      </trkpt>
      <trkpt lat="45.47459" lon="4.65978">
        <ele>537</ele>
        <time>2013-06-09T07:38:54Z</time>
      </trkpt>
      <trkpt lat="45.47459" lon="4.65984">
        <ele>538</ele>
        <time>2013-06-09T07:38:57Z</time>
      </trkpt>
      <trkpt lat="45.47458" lon="4.65992">
        <ele>538</ele>
        <time>2013-06-09T07:39:00Z</time>
      </trkpt>
      <trkpt lat="45.47458" lon="4.66">
        <ele>538</ele>
        <time>2013-06-09T07:39:03Z</time>
      </trkpt>
      <trkpt lat="45.47457" lon="4.66008">
        <ele>539</ele>
        <time>2013-06-09T07:39:06Z</time>
      </trkpt>
      <trkpt lat="45.47456" lon="4.66016">
        <ele>540</ele>
        <time>2013-06-09T07:39:09Z</time>
      </trkpt>
      <trkpt lat="45.47454" lon="4.66026">
        <ele>540</ele>
        <time>2013-06-09T07:39:12Z</time>
      </trkpt>
      <trkpt lat="45.47454" lon="4.66033">
        <ele>540</ele>
        <time>2013-06-09T07:39:15Z</time>
      </trkpt>
      <trkpt lat="45.47455" lon="4.66039">
        <ele>540</ele>
        <time>2013-06-09T07:39:18Z</time>
      </trkpt>
      <trkpt lat="45.47457" lon="4.66045">
        <ele>540</ele>
        <time>2013-06-09T07:39:21Z</time>
      </trkpt>
      <trkpt lat="45.47458" lon="4.66051">
        <ele>540</ele>
        <time>2013-06-09T07:39:24Z</time>
      </trkpt>
      <trkpt lat="45.4746" lon="4.66057">
        <ele>540</ele>
        <time>2013-06-09T07:39:27Z</time>
      </trkpt>
      <trkpt lat="45.47462" lon="4.66063">
        <ele>541</ele>
        <time>2013-06-09T07:39:30Z</time>
      </trkpt>
      <trkpt lat="45.47464" lon="4.6607">
        <ele>541</ele>
        <time>2013-06-09T07:39:33Z</time>
      </trkpt>
      <trkpt lat="45.47465" lon="4.66079">
        <ele>543</ele>
        <time>2013-06-09T07:39:37Z</time>
      </trkpt>
      <trkpt lat="45.47467" lon="4.66085">
        <ele>545</ele>
        <time>2013-06-09T07:39:40Z</time>
      </trkpt>
      <trkpt lat="45.47468" lon="4.66088">
        <ele>546</ele>
        <time>2013-06-09T07:39:43Z</time>
      </trkpt>
      <trkpt lat="45.4747" lon="4.66093">
        <ele>548</ele>
        <time>2013-06-09T07:39:46Z</time>
      </trkpt>
      <trkpt lat="45.47471" lon="4.66098">
        <ele>548</ele>
        <time>2013-06-09T07:39:49Z</time>
      </trkpt>
      <trkpt lat="45.47474" lon="4.66104">
        <ele>548</ele>
        <time>2013-06-09T07:39:52Z</time>
      </trkpt>
      <trkpt lat="45.47477" lon="4.6611">
        <ele>548</ele>
        <time>2013-06-09T07:39:55Z</time>
      </trkpt>
      <trkpt lat="45.47479" lon="4.66117">
        <ele>548</ele>
        <time>2013-06-09T07:39:58Z</time>
      </trkpt>
      <trkpt lat="45.47482" lon="4.66123">
        <ele>548</ele>
        <time>2013-06-09T07:40:01Z</time>
      </trkpt>
      <trkpt lat="45.47484" lon="4.66129">
        <ele>548</ele>
        <time>2013-06-09T07:40:04Z</time>
      </trkpt>
      <trkpt lat="45.47485" lon="4.66135">
        <ele>549</ele>
        <time>2013-06-09T07:40:07Z</time>
      </trkpt>
      <trkpt lat="45.47488" lon="4.66141">
        <ele>550</ele>
        <time>2013-06-09T07:40:10Z</time>
      </trkpt>
      <trkpt lat="45.4749" lon="4.66146">
        <ele>551</ele>
        <time>2013-06-09T07:40:13Z</time>
      </trkpt>
      <trkpt lat="45.47492" lon="4.66152">
        <ele>552</ele>
        <time>2013-06-09T07:40:16Z</time>
      </trkpt>
      <trkpt lat="45.47495" lon="4.66158">
        <ele>552</ele>
        <time>2013-06-09T07:40:19Z</time>
      </trkpt>
      <trkpt lat="45.47498" lon="4.66163">
        <ele>552</ele>
        <time>2013-06-09T07:40:22Z</time>
      </trkpt>
      <trkpt lat="45.47501" lon="4.66169">
        <ele>553</ele>
        <time>2013-06-09T07:40:25Z</time>
      </trkpt>
      <trkpt lat="45.47504" lon="4.66176">
        <ele>554</ele>
        <time>2013-06-09T07:40:28Z</time>
      </trkpt>
      <trkpt lat="45.47507" lon="4.66182">
        <ele>554</ele>
        <time>2013-06-09T07:40:31Z</time>
      </trkpt>
      <trkpt lat="45.47509" lon="4.66188">
        <ele>554</ele>
        <time>2013-06-09T07:40:34Z</time>
      </trkpt>
      <trkpt lat="45.4751" lon="4.66192">
        <ele>554</ele>
        <time>2013-06-09T07:40:37Z</time>
      </trkpt>
      <trkpt lat="45.47511" lon="4.66198">
        <ele>555</ele>
        <time>2013-06-09T07:40:40Z</time>
      </trkpt>
      <trkpt lat="45.47513" lon="4.66202">
        <ele>555</ele>
        <time>2013-06-09T07:40:43Z</time>
      </trkpt>
      <trkpt lat="45.47516" lon="4.66209">
        <ele>557</ele>
        <time>2013-06-09T07:40:47Z</time>
      </trkpt>
      <trkpt lat="45.47517" lon="4.66214">
        <ele>557</ele>
        <time>2013-06-09T07:40:50Z</time>
      </trkpt>
      <trkpt lat="45.47519" lon="4.66219">
        <ele>558</ele>
        <time>2013-06-09T07:40:53Z</time>
      </trkpt>
      <trkpt lat="45.4752" lon="4.66223">
        <ele>559</ele>
        <time>2013-06-09T07:40:56Z</time>
      </trkpt>
      <trkpt lat="45.47522" lon="4.66229">
        <ele>559</ele>
        <time>2013-06-09T07:40:59Z</time>
      </trkpt>
      <trkpt lat="45.47525" lon="4.66234">
        <ele>559</ele>
        <time>2013-06-09T07:41:03Z</time>
      </trkpt>
      <trkpt lat="45.47526" lon="4.6624">
        <ele>560</ele>
        <time>2013-06-09T07:41:06Z</time>
      </trkpt>
      <trkpt lat="45.47527" lon="4.66245">
        <ele>560</ele>
        <time>2013-06-09T07:41:09Z</time>
      </trkpt>
      <trkpt lat="45.47531" lon="4.66253">
        <ele>560</ele>
        <time>2013-06-09T07:41:12Z</time>
      </trkpt>
      <trkpt lat="45.47533" lon="4.66259">
        <ele>560</ele>
        <time>2013-06-09T07:41:15Z</time>
      </trkpt>
      <trkpt lat="45.47535" lon="4.66264">
        <ele>561</ele>
        <time>2013-06-09T07:41:18Z</time>
      </trkpt>
      <trkpt lat="45.47536" lon="4.66268">
        <ele>562</ele>
        <time>2013-06-09T07:41:21Z</time>
      </trkpt>
      <trkpt lat="45.47537" lon="4.66272">
        <ele>562</ele>
        <time>2013-06-09T07:41:24Z</time>
      </trkpt>
      <trkpt lat="45.47539" lon="4.66277">
        <ele>563</ele>
        <time>2013-06-09T07:41:27Z</time>
      </trkpt>
      <trkpt lat="45.47541" lon="4.66281">
        <ele>564</ele>
        <time>2013-06-09T07:41:30Z</time>
      </trkpt>
      <trkpt lat="45.47543" lon="4.66287">
        <ele>564</ele>
        <time>2013-06-09T07:41:34Z</time>
      </trkpt>
      <trkpt lat="45.47546" lon="4.66291">
        <ele>565</ele>
        <time>2013-06-09T07:41:38Z</time>
      </trkpt>
      <trkpt lat="45.47549" lon="4.66294">
        <ele>566</ele>
        <time>2013-06-09T07:41:42Z</time>
      </trkpt>
      <trkpt lat="45.47552" lon="4.66298">
        <ele>567</ele>
        <time>2013-06-09T07:41:46Z</time>
      </trkpt>
      <trkpt lat="45.47557" lon="4.66301">
        <ele>567</ele>
        <time>2013-06-09T07:41:50Z</time>
      </trkpt>
      <trkpt lat="45.4756" lon="4.66304">
        <ele>568</ele>
        <time>2013-06-09T07:41:53Z</time>
      </trkpt>
      <trkpt lat="45.47564" lon="4.66305">
        <ele>569</ele>
        <time>2013-06-09T07:41:57Z</time>
      </trkpt>
      <trkpt lat="45.47567" lon="4.66307">
        <ele>570</ele>
        <time>2013-06-09T07:42:00Z</time>
      </trkpt>
      <trkpt lat="45.47571" lon="4.6631">
        <ele>571</ele>
        <time>2013-06-09T07:42:04Z</time>
      </trkpt>
      <trkpt lat="45.47574" lon="4.66313">
        <ele>572</ele>
        <time>2013-06-09T07:42:08Z</time>
      </trkpt>
      <trkpt lat="45.47578" lon="4.66317">
        <ele>573</ele>
        <time>2013-06-09T07:42:12Z</time>
      </trkpt>
      <trkpt lat="45.47581" lon="4.66319">
        <ele>573</ele>
        <time>2013-06-09T07:42:15Z</time>
      </trkpt>
      <trkpt lat="45.47585" lon="4.66322">
        <ele>574</ele>
        <time>2013-06-09T07:42:19Z</time>
      </trkpt>
      <trkpt lat="45.47589" lon="4.66326">
        <ele>576</ele>
        <time>2013-06-09T07:42:23Z</time>
      </trkpt>
      <trkpt lat="45.47593" lon="4.6633">
        <ele>578</ele>
        <time>2013-06-09T07:42:27Z</time>
      </trkpt>
      <trkpt lat="45.47597" lon="4.66334">
        <ele>579</ele>
        <time>2013-06-09T07:42:31Z</time>
      </trkpt>
      <trkpt lat="45.476" lon="4.66337">
        <ele>580</ele>
        <time>2013-06-09T07:42:34Z</time>
      </trkpt>
      <trkpt lat="45.47604" lon="4.66341">
        <ele>581</ele>
        <time>2013-06-09T07:42:38Z</time>
      </trkpt>
      <trkpt lat="45.47608" lon="4.66345">
        <ele>581</ele>
        <time>2013-06-09T07:42:42Z</time>
      </trkpt>
      <trkpt lat="45.47612" lon="4.66349">
        <ele>582</ele>
        <time>2013-06-09T07:42:46Z</time>
      </trkpt>
      <trkpt lat="45.47615" lon="4.66352">
        <ele>582</ele>
        <time>2013-06-09T07:42:50Z</time>
      </trkpt>
      <trkpt lat="45.47619" lon="4.66356">
        <ele>583</ele>
        <time>2013-06-09T07:42:54Z</time>
      </trkpt>
      <trkpt lat="45.47623" lon="4.6636">
        <ele>583</ele>
        <time>2013-06-09T07:42:58Z</time>
      </trkpt>
      <trkpt lat="45.47627" lon="4.66363">
        <ele>584</ele>
        <time>2013-06-09T07:43:02Z</time>
      </trkpt>
      <trkpt lat="45.4763" lon="4.66366">
        <ele>585</ele>
        <time>2013-06-09T07:43:05Z</time>
      </trkpt>
      <trkpt lat="45.47634" lon="4.6637">
        <ele>586</ele>
        <time>2013-06-09T07:43:09Z</time>
      </trkpt>
      <trkpt lat="45.47638" lon="4.66374">
        <ele>586</ele>
        <time>2013-06-09T07:43:13Z</time>
      </trkpt>
      <trkpt lat="45.47642" lon="4.66378">
        <ele>587</ele>
        <time>2013-06-09T07:43:17Z</time>
      </trkpt>
      <trkpt lat="45.47645" lon="4.66382">
        <ele>588</ele>
        <time>2013-06-09T07:43:21Z</time>
      </trkpt>
      <trkpt lat="45.47648" lon="4.66386">
        <ele>588</ele>
        <time>2013-06-09T07:43:25Z</time>
      </trkpt>
      <trkpt lat="45.47652" lon="4.6639">
        <ele>590</ele>
        <time>2013-06-09T07:43:29Z</time>
      </trkpt>
      <trkpt lat="45.47655" lon="4.66392">
        <ele>591</ele>
        <time>2013-06-09T07:43:32Z</time>
      </trkpt>
      <trkpt lat="45.47657" lon="4.66397">
        <ele>592</ele>
        <time>2013-06-09T07:43:36Z</time>
      </trkpt>
      <trkpt lat="45.4766" lon="4.66401">
        <ele>593</ele>
        <time>2013-06-09T07:43:39Z</time>
      </trkpt>
      <trkpt lat="45.47661" lon="4.66406">
        <ele>594</ele>
        <time>2013-06-09T07:43:42Z</time>
      </trkpt>
      <trkpt lat="45.47664" lon="4.66411">
        <ele>595</ele>
        <time>2013-06-09T07:43:46Z</time>
      </trkpt>
      <trkpt lat="45.47667" lon="4.66415">
        <ele>596</ele>
        <time>2013-06-09T07:43:49Z</time>
      </trkpt>
      <trkpt lat="45.47669" lon="4.6642">
        <ele>596</ele>
        <time>2013-06-09T07:43:53Z</time>
      </trkpt>
      <trkpt lat="45.47672" lon="4.66422">
        <ele>597</ele>
        <time>2013-06-09T07:43:58Z</time>
      </trkpt>
      <trkpt lat="45.47675" lon="4.66424">
        <ele>597</ele>
        <time>2013-06-09T07:44:02Z</time>
      </trkpt>
      <trkpt lat="45.47678" lon="4.66427">
        <ele>598</ele>
        <time>2013-06-09T07:44:06Z</time>
      </trkpt>
      <trkpt lat="45.47681" lon="4.6643">
        <ele>599</ele>
        <time>2013-06-09T07:44:10Z</time>
      </trkpt>
      <trkpt lat="45.47684" lon="4.66433">
        <ele>600</ele>
        <time>2013-06-09T07:44:14Z</time>
      </trkpt>
      <trkpt lat="45.47685" lon="4.66437">
        <ele>600</ele>
        <time>2013-06-09T07:44:17Z</time>
      </trkpt>
      <trkpt lat="45.47688" lon="4.66441">
        <ele>600</ele>
        <time>2013-06-09T07:44:21Z</time>
      </trkpt>
      <trkpt lat="45.47691" lon="4.66445">
        <ele>600</ele>
        <time>2013-06-09T07:44:25Z</time>
      </trkpt>
      <trkpt lat="45.47694" lon="4.66446">
        <ele>601</ele>
        <time>2013-06-09T07:44:28Z</time>
      </trkpt>
      <trkpt lat="45.47697" lon="4.66451">
        <ele>602</ele>
        <time>2013-06-09T07:44:32Z</time>
      </trkpt>
      <trkpt lat="45.47699" lon="4.66454">
        <ele>602</ele>
        <time>2013-06-09T07:44:35Z</time>
      </trkpt>
      <trkpt lat="45.47702" lon="4.66458">
        <ele>602</ele>
        <time>2013-06-09T07:44:39Z</time>
      </trkpt>
      <trkpt lat="45.47704" lon="4.66463">
        <ele>603</ele>
        <time>2013-06-09T07:44:42Z</time>
      </trkpt>
      <trkpt lat="45.47705" lon="4.66467">
        <ele>603</ele>
        <time>2013-06-09T07:44:46Z</time>
      </trkpt>
      <trkpt lat="45.47708" lon="4.66473">
        <ele>603</ele>
        <time>2013-06-09T07:44:50Z</time>
      </trkpt>
      <trkpt lat="45.47711" lon="4.66475">
        <ele>603</ele>
        <time>2013-06-09T07:44:53Z</time>
      </trkpt>
      <trkpt lat="45.47714" lon="4.6648">
        <ele>603</ele>
        <time>2013-06-09T07:44:57Z</time>
      </trkpt>
      <trkpt lat="45.47716" lon="4.66484">
        <ele>604</ele>
        <time>2013-06-09T07:45:00Z</time>
      </trkpt>
      <trkpt lat="45.47718" lon="4.66488">
        <ele>604</ele>
        <time>2013-06-09T07:45:03Z</time>
      </trkpt>
      <trkpt lat="45.47722" lon="4.66493">
        <ele>604</ele>
        <time>2013-06-09T07:45:07Z</time>
      </trkpt>
      <trkpt lat="45.47725" lon="4.66497">
        <ele>605</ele>
        <time>2013-06-09T07:45:11Z</time>
      </trkpt>
      <trkpt lat="45.47726" lon="4.66501">
        <ele>605</ele>
        <time>2013-06-09T07:45:14Z</time>
      </trkpt>
      <trkpt lat="45.4773" lon="4.66504">
        <ele>605</ele>
        <time>2013-06-09T07:45:18Z</time>
      </trkpt>
      <trkpt lat="45.47733" lon="4.66509">
        <ele>605</ele>
        <time>2013-06-09T07:45:22Z</time>
      </trkpt>
      <trkpt lat="45.47736" lon="4.66513">
        <ele>607</ele>
        <time>2013-06-09T07:45:26Z</time>
      </trkpt>
      <trkpt lat="45.47736" lon="4.66515">
        <ele>610</ele>
        <time>2013-06-09T07:45:33Z</time>
      </trkpt>
      <trkpt lat="45.47737" lon="4.66517">
        <ele>611</ele>
        <time>2013-06-09T07:45:36Z</time>
      </trkpt>
      <trkpt lat="45.47739" lon="4.66522">
        <ele>612</ele>
        <time>2013-06-09T07:45:40Z</time>
      </trkpt>
      <trkpt lat="45.47742" lon="4.66525">
        <ele>613</ele>
        <time>2013-06-09T07:45:44Z</time>
      </trkpt>
      <trkpt lat="45.47745" lon="4.66528">
        <ele>614</ele>
        <time>2013-06-09T07:45:48Z</time>
      </trkpt>
      <trkpt lat="45.47747" lon="4.66531">
        <ele>615</ele>
        <time>2013-06-09T07:45:51Z</time>
      </trkpt>
      <trkpt lat="45.4775" lon="4.66533">
        <ele>617</ele>
        <time>2013-06-09T07:45:54Z</time>
      </trkpt>
      <trkpt lat="45.47755" lon="4.66538">
        <ele>618</ele>
        <time>2013-06-09T07:45:58Z</time>
      </trkpt>
      <trkpt lat="45.47757" lon="4.66542">
        <ele>619</ele>
        <time>2013-06-09T07:46:02Z</time>
      </trkpt>
      <trkpt lat="45.4776" lon="4.66545">
        <ele>620</ele>
        <time>2013-06-09T07:46:06Z</time>
      </trkpt>
      <trkpt lat="45.47763" lon="4.66548">
        <ele>621</ele>
        <time>2013-06-09T07:46:09Z</time>
      </trkpt>
      <trkpt lat="45.47766" lon="4.6655">
        <ele>622</ele>
        <time>2013-06-09T07:46:12Z</time>
      </trkpt>
      <trkpt lat="45.47769" lon="4.66554">
        <ele>624</ele>
        <time>2013-06-09T07:46:15Z</time>
      </trkpt>
      <trkpt lat="45.47773" lon="4.66558">
        <ele>625</ele>
        <time>2013-06-09T07:46:18Z</time>
      </trkpt>
      <trkpt lat="45.47775" lon="4.66561">
        <ele>625</ele>
        <time>2013-06-09T07:46:21Z</time>
      </trkpt>
      <trkpt lat="45.47778" lon="4.66566">
        <ele>625</ele>
        <time>2013-06-09T07:46:25Z</time>
      </trkpt>
      <trkpt lat="45.4778" lon="4.6657">
        <ele>625</ele>
        <time>2013-06-09T07:46:29Z</time>
      </trkpt>
      <trkpt lat="45.47783" lon="4.66574">
        <ele>625</ele>
        <time>2013-06-09T07:46:32Z</time>
      </trkpt>
      <trkpt lat="45.47785" lon="4.66581">
        <ele>625</ele>
        <time>2013-06-09T07:46:36Z</time>
      </trkpt>
      <trkpt lat="45.47788" lon="4.66585">
        <ele>625</ele>
        <time>2013-06-09T07:46:39Z</time>
      </trkpt>
      <trkpt lat="45.4779" lon="4.6659">
        <ele>626</ele>
        <time>2013-06-09T07:46:42Z</time>
      </trkpt>
      <trkpt lat="45.47793" lon="4.66594">
        <ele>626</ele>
        <time>2013-06-09T07:46:45Z</time>
      </trkpt>
      <trkpt lat="45.47796" lon="4.66598">
        <ele>627</ele>
        <time>2013-06-09T07:46:48Z</time>
      </trkpt>
      <trkpt lat="45.478" lon="4.66604">
        <ele>628</ele>
        <time>2013-06-09T07:46:52Z</time>
      </trkpt>
      <trkpt lat="45.47802" lon="4.66609">
        <ele>628</ele>
        <time>2013-06-09T07:46:56Z</time>
      </trkpt>
      <trkpt lat="45.47804" lon="4.66614">
        <ele>629</ele>
        <time>2013-06-09T07:47:00Z</time>
      </trkpt>
      <trkpt lat="45.47805" lon="4.66618">
        <ele>629</ele>
        <time>2013-06-09T07:47:04Z</time>
      </trkpt>
      <trkpt lat="45.47806" lon="4.6662">
        <ele>629</ele>
        <time>2013-06-09T07:47:17Z</time>
      </trkpt>
      <trkpt lat="45.47805" lon="4.66623">
        <ele>630</ele>
        <time>2013-06-09T07:47:21Z</time>
      </trkpt>
      <trkpt lat="45.47806" lon="4.66625">
        <ele>630</ele>
        <time>2013-06-09T07:47:24Z</time>
      </trkpt>
      <trkpt lat="45.47805" lon="4.66627">
        <ele>631</ele>
        <time>2013-06-09T07:47:29Z</time>
      </trkpt>
      <trkpt lat="45.47805" lon="4.66629">
        <ele>632</ele>
        <time>2013-06-09T07:47:41Z</time>
      </trkpt>
      <trkpt lat="45.47805" lon="4.6663">
        <ele>633</ele>
        <time>2013-06-09T07:48:03Z</time>
      </trkpt>
      <trkpt lat="45.47805" lon="4.66629">
        <ele>633</ele>
        <time>2013-06-09T07:48:31Z</time>
      </trkpt>
      <trkpt lat="45.47803" lon="4.6663">
        <ele>633</ele>
        <time>2013-06-09T07:48:41Z</time>
      </trkpt>
      <trkpt lat="45.478" lon="4.66635">
        <ele>633</ele>
        <time>2013-06-09T07:48:45Z</time>
      </trkpt>
      <trkpt lat="45.47797" lon="4.6664">
        <ele>633</ele>
        <time>2013-06-09T07:48:48Z</time>
      </trkpt>
      <trkpt lat="45.47792" lon="4.66646">
        <ele>633</ele>
        <time>2013-06-09T07:48:51Z</time>
      </trkpt>
      <trkpt lat="45.47789" lon="4.66651">
        <ele>633</ele>
        <time>2013-06-09T07:48:54Z</time>
      </trkpt>
      <trkpt lat="45.47786" lon="4.66657">
        <ele>633</ele>
        <time>2013-06-09T07:48:57Z</time>
      </trkpt>
      <trkpt lat="45.47783" lon="4.66663">
        <ele>633</ele>
        <time>2013-06-09T07:49:00Z</time>
      </trkpt>
      <trkpt lat="45.4778" lon="4.66669">
        <ele>634</ele>
        <time>2013-06-09T07:49:03Z</time>
      </trkpt>
      <trkpt lat="45.47776" lon="4.66674">
        <ele>634</ele>
        <time>2013-06-09T07:49:06Z</time>
      </trkpt>
      <trkpt lat="45.47773" lon="4.66678">
        <ele>634</ele>
        <time>2013-06-09T07:49:09Z</time>
      </trkpt>
      <trkpt lat="45.47769" lon="4.66683">
        <ele>634</ele>
        <time>2013-06-09T07:49:12Z</time>
      </trkpt>
      <trkpt lat="45.47765" lon="4.66688">
        <ele>634</ele>
        <time>2013-06-09T07:49:15Z</time>
      </trkpt>
      <trkpt lat="45.47761" lon="4.66694">
        <ele>634</ele>
        <time>2013-06-09T07:49:18Z</time>
      </trkpt>
      <trkpt lat="45.47757" lon="4.66701">
        <ele>634</ele>
        <time>2013-06-09T07:49:21Z</time>
      </trkpt>
      <trkpt lat="45.47753" lon="4.66707">
        <ele>634</ele>
        <time>2013-06-09T07:49:24Z</time>
      </trkpt>
      <trkpt lat="45.47749" lon="4.66713">
        <ele>634</ele>
        <time>2013-06-09T07:49:27Z</time>
      </trkpt>
      <trkpt lat="45.47743" lon="4.66719">
        <ele>634</ele>
        <time>2013-06-09T07:49:30Z</time>
      </trkpt>
      <trkpt lat="45.47739" lon="4.66724">
        <ele>634</ele>
        <time>2013-06-09T07:49:33Z</time>
      </trkpt>
      <trkpt lat="45.47735" lon="4.6673">
        <ele>634</ele>
        <time>2013-06-09T07:49:36Z</time>
      </trkpt>
      <trkpt lat="45.47731" lon="4.66735">
        <ele>634</ele>
        <time>2013-06-09T07:49:39Z</time>
      </trkpt>
      <trkpt lat="45.47727" lon="4.6674">
        <ele>634</ele>
        <time>2013-06-09T07:49:42Z</time>
      </trkpt>
      <trkpt lat="45.47722" lon="4.66745">
        <ele>634</ele>
        <time>2013-06-09T07:49:45Z</time>
      </trkpt>
      <trkpt lat="45.47718" lon="4.66751">
        <ele>634</ele>
        <time>2013-06-09T07:49:48Z</time>
      </trkpt>
      <trkpt lat="45.47713" lon="4.66757">
        <ele>636</ele>
        <time>2013-06-09T07:49:52Z</time>
      </trkpt>
      <trkpt lat="45.47709" lon="4.66764">
        <ele>636</ele>
        <time>2013-06-09T07:49:56Z</time>
      </trkpt>
      <trkpt lat="45.47705" lon="4.66771">
        <ele>636</ele>
        <time>2013-06-09T07:50:00Z</time>
      </trkpt>
      <trkpt lat="45.47701" lon="4.66777">
        <ele>637</ele>
        <time>2013-06-09T07:50:03Z</time>
      </trkpt>
      <trkpt lat="45.47698" lon="4.66781">
        <ele>638</ele>
        <time>2013-06-09T07:50:06Z</time>
      </trkpt>
      <trkpt lat="45.47693" lon="4.66789">
        <ele>639</ele>
        <time>2013-06-09T07:50:09Z</time>
      </trkpt>
      <trkpt lat="45.47689" lon="4.66796">
        <ele>641</ele>
        <time>2013-06-09T07:50:12Z</time>
      </trkpt>
      <trkpt lat="45.47686" lon="4.66801">
        <ele>642</ele>
        <time>2013-06-09T07:50:15Z</time>
      </trkpt>
      <trkpt lat="45.47683" lon="4.66806">
        <ele>643</ele>
        <time>2013-06-09T07:50:18Z</time>
      </trkpt>
      <trkpt lat="45.47679" lon="4.66812">
        <ele>645</ele>
        <time>2013-06-09T07:50:21Z</time>
      </trkpt>
      <trkpt lat="45.47676" lon="4.66817">
        <ele>645</ele>
        <time>2013-06-09T07:50:24Z</time>
      </trkpt>
      <trkpt lat="45.47672" lon="4.66823">
        <ele>646</ele>
        <time>2013-06-09T07:50:27Z</time>
      </trkpt>
      <trkpt lat="45.47668" lon="4.66829">
        <ele>648</ele>
        <time>2013-06-09T07:50:30Z</time>
      </trkpt>
      <trkpt lat="45.47665" lon="4.66836">
        <ele>649</ele>
        <time>2013-06-09T07:50:33Z</time>
      </trkpt>
      <trkpt lat="45.47661" lon="4.66842">
        <ele>650</ele>
        <time>2013-06-09T07:50:36Z</time>
      </trkpt>
      <trkpt lat="45.47657" lon="4.66848">
        <ele>651</ele>
        <time>2013-06-09T07:50:39Z</time>
      </trkpt>
      <trkpt lat="45.47654" lon="4.66853">
        <ele>652</ele>
        <time>2013-06-09T07:50:42Z</time>
      </trkpt>
      <trkpt lat="45.4765" lon="4.66859">
        <ele>653</ele>
        <time>2013-06-09T07:50:45Z</time>
      </trkpt>
      <trkpt lat="45.47646" lon="4.66866">
        <ele>654</ele>
        <time>2013-06-09T07:50:48Z</time>
      </trkpt>
      <trkpt lat="45.47641" lon="4.66873">
        <ele>655</ele>
        <time>2013-06-09T07:50:51Z</time>
      </trkpt>
      <trkpt lat="45.47637" lon="4.6688">
        <ele>656</ele>
        <time>2013-06-09T07:50:54Z</time>
      </trkpt>
      <trkpt lat="45.47632" lon="4.66885">
        <ele>657</ele>
        <time>2013-06-09T07:50:57Z</time>
      </trkpt>
      <trkpt lat="45.47628" lon="4.6689">
        <ele>658</ele>
        <time>2013-06-09T07:51:00Z</time>
      </trkpt>
      <trkpt lat="45.47623" lon="4.66895">
        <ele>658</ele>
        <time>2013-06-09T07:51:03Z</time>
      </trkpt>
      <trkpt lat="45.47618" lon="4.66901">
        <ele>659</ele>
        <time>2013-06-09T07:51:06Z</time>
      </trkpt>
      <trkpt lat="45.47612" lon="4.66906">
        <ele>660</ele>
        <time>2013-06-09T07:51:09Z</time>
      </trkpt>
      <trkpt lat="45.47607" lon="4.66911">
        <ele>660</ele>
        <time>2013-06-09T07:51:12Z</time>
      </trkpt>
      <trkpt lat="45.47602" lon="4.66915">
        <ele>660</ele>
        <time>2013-06-09T07:51:15Z</time>
      </trkpt>
      <trkpt lat="45.47597" lon="4.66917">
        <ele>661</ele>
        <time>2013-06-09T07:51:18Z</time>
      </trkpt>
      <trkpt lat="45.47592" lon="4.66921">
        <ele>661</ele>
        <time>2013-06-09T07:51:21Z</time>
      </trkpt>
      <trkpt lat="45.47586" lon="4.66925">
        <ele>662</ele>
        <time>2013-06-09T07:51:24Z</time>
      </trkpt>
      <trkpt lat="45.47582" lon="4.66928">
        <ele>663</ele>
        <time>2013-06-09T07:51:27Z</time>
      </trkpt>
      <trkpt lat="45.47577" lon="4.66934">
        <ele>663</ele>
        <time>2013-06-09T07:51:31Z</time>
      </trkpt>
      <trkpt lat="45.47573" lon="4.6694">
        <ele>664</ele>
        <time>2013-06-09T07:51:34Z</time>
      </trkpt>
      <trkpt lat="45.47568" lon="4.66945">
        <ele>664</ele>
        <time>2013-06-09T07:51:37Z</time>
      </trkpt>
      <trkpt lat="45.47563" lon="4.6695">
        <ele>664</ele>
        <time>2013-06-09T07:51:40Z</time>
      </trkpt>
      <trkpt lat="45.47557" lon="4.66954">
        <ele>664</ele>
        <time>2013-06-09T07:51:43Z</time>
      </trkpt>
      <trkpt lat="45.47552" lon="4.66958">
        <ele>665</ele>
        <time>2013-06-09T07:51:46Z</time>
      </trkpt>
      <trkpt lat="45.47546" lon="4.66961">
        <ele>665</ele>
        <time>2013-06-09T07:51:49Z</time>
      </trkpt>
      <trkpt lat="45.47541" lon="4.66965">
        <ele>665</ele>
        <time>2013-06-09T07:51:52Z</time>
      </trkpt>
      <trkpt lat="45.47536" lon="4.66969">
        <ele>665</ele>
        <time>2013-06-09T07:51:55Z</time>
      </trkpt>
      <trkpt lat="45.4753" lon="4.66973">
        <ele>665</ele>
        <time>2013-06-09T07:51:58Z</time>
      </trkpt>
      <trkpt lat="45.47525" lon="4.66977">
        <ele>665</ele>
        <time>2013-06-09T07:52:01Z</time>
      </trkpt>
      <trkpt lat="45.47519" lon="4.66982">
        <ele>666</ele>
        <time>2013-06-09T07:52:04Z</time>
      </trkpt>
      <trkpt lat="45.47514" lon="4.66986">
        <ele>666</ele>
        <time>2013-06-09T07:52:07Z</time>
      </trkpt>
      <trkpt lat="45.47509" lon="4.66991">
        <ele>667</ele>
        <time>2013-06-09T07:52:10Z</time>
      </trkpt>
      <trkpt lat="45.47503" lon="4.66996">
        <ele>667</ele>
        <time>2013-06-09T07:52:13Z</time>
      </trkpt>
      <trkpt lat="45.47498" lon="4.67">
        <ele>668</ele>
        <time>2013-06-09T07:52:16Z</time>
      </trkpt>
      <trkpt lat="45.47492" lon="4.67005">
        <ele>668</ele>
        <time>2013-06-09T07:52:19Z</time>
      </trkpt>
      <trkpt lat="45.47487" lon="4.67009">
        <ele>668</ele>
        <time>2013-06-09T07:52:22Z</time>
      </trkpt>
      <trkpt lat="45.47482" lon="4.67013">
        <ele>668</ele>
        <time>2013-06-09T07:52:25Z</time>
      </trkpt>
      <trkpt lat="45.47476" lon="4.67017">
        <ele>669</ele>
        <time>2013-06-09T07:52:28Z</time>
      </trkpt>
      <trkpt lat="45.4747" lon="4.67021">
        <ele>669</ele>
        <time>2013-06-09T07:52:31Z</time>
      </trkpt>
      <trkpt lat="45.47464" lon="4.67022">
        <ele>669</ele>
        <time>2013-06-09T07:52:34Z</time>
      </trkpt>
      <trkpt lat="45.47458" lon="4.67025">
        <ele>669</ele>
        <time>2013-06-09T07:52:37Z</time>
      </trkpt>
      <trkpt lat="45.47451" lon="4.67029">
        <ele>669</ele>
        <time>2013-06-09T07:52:40Z</time>
      </trkpt>
      <trkpt lat="45.47445" lon="4.67035">
        <ele>669</ele>
        <time>2013-06-09T07:52:43Z</time>
      </trkpt>
      <trkpt lat="45.47439" lon="4.67039">
        <ele>669</ele>
        <time>2013-06-09T07:52:46Z</time>
      </trkpt>
      <trkpt lat="45.47432" lon="4.67045">
        <ele>669</ele>
        <time>2013-06-09T07:52:49Z</time>
      </trkpt>
      <trkpt lat="45.47425" lon="4.6705">
        <ele>669</ele>
        <time>2013-06-09T07:52:52Z</time>
      </trkpt>
      <trkpt lat="45.47419" lon="4.67054">
        <ele>669</ele>
        <time>2013-06-09T07:52:55Z</time>
      </trkpt>
      <trkpt lat="45.47413" lon="4.67058">
        <ele>669</ele>
        <time>2013-06-09T07:52:58Z</time>
      </trkpt>
      <trkpt lat="45.47406" lon="4.67062">
        <ele>669</ele>
        <time>2013-06-09T07:53:01Z</time>
      </trkpt>
      <trkpt lat="45.47399" lon="4.67065">
        <ele>669</ele>
        <time>2013-06-09T07:53:04Z</time>
      </trkpt>
      <trkpt lat="45.47393" lon="4.67067">
        <ele>669</ele>
        <time>2013-06-09T07:53:07Z</time>
      </trkpt>
      <trkpt lat="45.47386" lon="4.67069">
        <ele>669</ele>
        <time>2013-06-09T07:53:10Z</time>
      </trkpt>
      <trkpt lat="45.47379" lon="4.67071">
        <ele>669</ele>
        <time>2013-06-09T07:53:13Z</time>
      </trkpt>
      <trkpt lat="45.47372" lon="4.67074">
        <ele>669</ele>
        <time>2013-06-09T07:53:16Z</time>
      </trkpt>
      <trkpt lat="45.47365" lon="4.67077">
        <ele>669</ele>
        <time>2013-06-09T07:53:19Z</time>
      </trkpt>
      <trkpt lat="45.47359" lon="4.67084">
        <ele>669</ele>
        <time>2013-06-09T07:53:22Z</time>
      </trkpt>
      <trkpt lat="45.47353" lon="4.67089">
        <ele>669</ele>
        <time>2013-06-09T07:53:25Z</time>
      </trkpt>
      <trkpt lat="45.47347" lon="4.67094">
        <ele>669</ele>
        <time>2013-06-09T07:53:28Z</time>
      </trkpt>
      <trkpt lat="45.4734" lon="4.67101">
        <ele>669</ele>
        <time>2013-06-09T07:53:31Z</time>
      </trkpt>
      <trkpt lat="45.47334" lon="4.67108">
        <ele>668</ele>
        <time>2013-06-09T07:53:34Z</time>
      </trkpt>
      <trkpt lat="45.47327" lon="4.67115">
        <ele>668</ele>
        <time>2013-06-09T07:53:37Z</time>
      </trkpt>
      <trkpt lat="45.47322" lon="4.67122">
        <ele>667</ele>
        <time>2013-06-09T07:53:40Z</time>
      </trkpt>
      <trkpt lat="45.47319" lon="4.6713">
        <ele>666</ele>
        <time>2013-06-09T07:53:43Z</time>
      </trkpt>
      <trkpt lat="45.47316" lon="4.6714">
        <ele>666</ele>
        <time>2013-06-09T07:53:47Z</time>
      </trkpt>
      <trkpt lat="45.47312" lon="4.67148">
        <ele>666</ele>
        <time>2013-06-09T07:53:50Z</time>
      </trkpt>
      <trkpt lat="45.47308" lon="4.6715">
        <ele>665</ele>
        <time>2013-06-09T07:53:56Z</time>
      </trkpt>
      <trkpt lat="45.47308" lon="4.67148">
        <ele>664</ele>
        <time>2013-06-09T07:54:04Z</time>
      </trkpt>
      <trkpt lat="45.47307" lon="4.67149">
        <ele>663</ele>
        <time>2013-06-09T07:54:16Z</time>
      </trkpt>
      <trkpt lat="45.47304" lon="4.67153">
        <ele>663</ele>
        <time>2013-06-09T07:54:20Z</time>
      </trkpt>
      <trkpt lat="45.47303" lon="4.67153">
        <ele>663</ele>
        <time>2013-06-09T07:54:28Z</time>
      </trkpt>
      <trkpt lat="45.47301" lon="4.67154">
        <ele>663</ele>
        <time>2013-06-09T07:55:22Z</time>
      </trkpt>
      <trkpt lat="45.47298" lon="4.67151">
        <ele>663</ele>
        <time>2013-06-09T07:55:25Z</time>
      </trkpt>
      <trkpt lat="45.47295" lon="4.67145">
        <ele>663</ele>
        <time>2013-06-09T07:55:28Z</time>
      </trkpt>
      <trkpt lat="45.47292" lon="4.67137">
        <ele>663</ele>
        <time>2013-06-09T07:55:31Z</time>
      </trkpt>
      <trkpt lat="45.47287" lon="4.67128">
        <ele>663</ele>
        <time>2013-06-09T07:55:34Z</time>
      </trkpt>
      <trkpt lat="45.47284" lon="4.67119">
        <ele>663</ele>
        <time>2013-06-09T07:55:38Z</time>
      </trkpt>
      <trkpt lat="45.47279" lon="4.67107">
        <ele>663</ele>
        <time>2013-06-09T07:55:41Z</time>
      </trkpt>
      <trkpt lat="45.47275" lon="4.67097">
        <ele>663</ele>
        <time>2013-06-09T07:55:44Z</time>
      </trkpt>
      <trkpt lat="45.4727" lon="4.67087">
        <ele>662</ele>
        <time>2013-06-09T07:55:47Z</time>
      </trkpt>
      <trkpt lat="45.47264" lon="4.67078">
        <ele>661</ele>
        <time>2013-06-09T07:55:50Z</time>
      </trkpt>
      <trkpt lat="45.4726" lon="4.67069">
        <ele>660</ele>
        <time>2013-06-09T07:55:54Z</time>
      </trkpt>
      <trkpt lat="45.47253" lon="4.67058">
        <ele>658</ele>
        <time>2013-06-09T07:55:57Z</time>
      </trkpt>
      <trkpt lat="45.47247" lon="4.67052">
        <ele>656</ele>
        <time>2013-06-09T07:56:00Z</time>
      </trkpt>
      <trkpt lat="45.47241" lon="4.67048">
        <ele>654</ele>
        <time>2013-06-09T07:56:04Z</time>
      </trkpt>
      <trkpt lat="45.47232" lon="4.67043">
        <ele>652</ele>
        <time>2013-06-09T07:56:07Z</time>
      </trkpt>
      <trkpt lat="45.47224" lon="4.67042">
        <ele>651</ele>
        <time>2013-06-09T07:56:10Z</time>
      </trkpt>
      <trkpt lat="45.47216" lon="4.6704">
        <ele>650</ele>
        <time>2013-06-09T07:56:14Z</time>
      </trkpt>
      <trkpt lat="45.47209" lon="4.67039">
        <ele>648</ele>
        <time>2013-06-09T07:56:17Z</time>
      </trkpt>
      <trkpt lat="45.47198" lon="4.67037">
        <ele>647</ele>
        <time>2013-06-09T07:56:20Z</time>
      </trkpt>
      <trkpt lat="45.47191" lon="4.67036">
        <ele>646</ele>
        <time>2013-06-09T07:56:23Z</time>
      </trkpt>
      <trkpt lat="45.47183" lon="4.67036">
        <ele>645</ele>
        <time>2013-06-09T07:56:26Z</time>
      </trkpt>
      <trkpt lat="45.47175" lon="4.67036">
        <ele>644</ele>
        <time>2013-06-09T07:56:30Z</time>
      </trkpt>
      <trkpt lat="45.47165" lon="4.67036">
        <ele>642</ele>
        <time>2013-06-09T07:56:33Z</time>
      </trkpt>
      <trkpt lat="45.47158" lon="4.67034">
        <ele>641</ele>
        <time>2013-06-09T07:56:36Z</time>
      </trkpt>
      <trkpt lat="45.4715" lon="4.67031">
        <ele>640</ele>
        <time>2013-06-09T07:56:40Z</time>
      </trkpt>
      <trkpt lat="45.47139" lon="4.67027">
        <ele>639</ele>
        <time>2013-06-09T07:56:43Z</time>
      </trkpt>
      <trkpt lat="45.47132" lon="4.67024">
        <ele>638</ele>
        <time>2013-06-09T07:56:46Z</time>
      </trkpt>
      <trkpt lat="45.47124" lon="4.6702">
        <ele>637</ele>
        <time>2013-06-09T07:56:50Z</time>
      </trkpt>
      <trkpt lat="45.47114" lon="4.67017">
        <ele>636</ele>
        <time>2013-06-09T07:56:53Z</time>
      </trkpt>
      <trkpt lat="45.47106" lon="4.67013">
        <ele>634</ele>
        <time>2013-06-09T07:56:56Z</time>
      </trkpt>
      <trkpt lat="45.47098" lon="4.67008">
        <ele>633</ele>
        <time>2013-06-09T07:57:00Z</time>
      </trkpt>
      <trkpt lat="45.47087" lon="4.67003">
        <ele>631</ele>
        <time>2013-06-09T07:57:03Z</time>
      </trkpt>
      <trkpt lat="45.47079" lon="4.66999">
        <ele>630</ele>
        <time>2013-06-09T07:57:06Z</time>
      </trkpt>
      <trkpt lat="45.47071" lon="4.66995">
        <ele>629</ele>
        <time>2013-06-09T07:57:10Z</time>
      </trkpt>
      <trkpt lat="45.47063" lon="4.66992">
        <ele>628</ele>
        <time>2013-06-09T07:57:13Z</time>
      </trkpt>
      <trkpt lat="45.47052" lon="4.66986">
        <ele>627</ele>
        <time>2013-06-09T07:57:16Z</time>
      </trkpt>
      <trkpt lat="45.47044" lon="4.66982">
        <ele>625</ele>
        <time>2013-06-09T07:57:20Z</time>
      </trkpt>
      <trkpt lat="45.47034" lon="4.66977">
        <ele>623</ele>
        <time>2013-06-09T07:57:23Z</time>
      </trkpt>
      <trkpt lat="45.47025" lon="4.66972">
        <ele>622</ele>
        <time>2013-06-09T07:57:26Z</time>
      </trkpt>
      <trkpt lat="45.47017" lon="4.6697">
        <ele>621</ele>
        <time>2013-06-09T07:57:30Z</time>
      </trkpt>
      <trkpt lat="45.47005" lon="4.66969">
        <ele>621</ele>
        <time>2013-06-09T07:57:33Z</time>
      </trkpt>
      <trkpt lat="45.46997" lon="4.66969">
        <ele>621</ele>
        <time>2013-06-09T07:57:37Z</time>
      </trkpt>
      <trkpt lat="45.46989" lon="4.6697">
        <ele>620</ele>
        <time>2013-06-09T07:57:40Z</time>
      </trkpt>
      <trkpt lat="45.46978" lon="4.6697">
        <ele>619</ele>
        <time>2013-06-09T07:57:43Z</time>
      </trkpt>
      <trkpt lat="45.4697" lon="4.66969">
        <ele>619</ele>
        <time>2013-06-09T07:57:46Z</time>
      </trkpt>
      <trkpt lat="45.46962" lon="4.66969">
        <ele>618</ele>
        <time>2013-06-09T07:57:49Z</time>
      </trkpt>
      <trkpt lat="45.46954" lon="4.66971">
        <ele>618</ele>
        <time>2013-06-09T07:57:52Z</time>
      </trkpt>
      <trkpt lat="45.46946" lon="4.66971">
        <ele>617</ele>
        <time>2013-06-09T07:57:56Z</time>
      </trkpt>
      <trkpt lat="45.46934" lon="4.66972">
        <ele>615</ele>
        <time>2013-06-09T07:57:59Z</time>
      </trkpt>
      <trkpt lat="45.46926" lon="4.66971">
        <ele>615</ele>
        <time>2013-06-09T07:58:02Z</time>
      </trkpt>
      <trkpt lat="45.46918" lon="4.66969">
        <ele>614</ele>
        <time>2013-06-09T07:58:06Z</time>
      </trkpt>
      <trkpt lat="45.46908" lon="4.66965">
        <ele>614</ele>
        <time>2013-06-09T07:58:09Z</time>
      </trkpt>
      <trkpt lat="45.46901" lon="4.66962">
        <ele>614</ele>
        <time>2013-06-09T07:58:12Z</time>
      </trkpt>
      <trkpt lat="45.46893" lon="4.66959">
        <ele>614</ele>
        <time>2013-06-09T07:58:15Z</time>
      </trkpt>
      <trkpt lat="45.46886" lon="4.66958">
        <ele>613</ele>
        <time>2013-06-09T07:58:18Z</time>
      </trkpt>
      <trkpt lat="45.46878" lon="4.66955">
        <ele>612</ele>
        <time>2013-06-09T07:58:21Z</time>
      </trkpt>
      <trkpt lat="45.4687" lon="4.66952">
        <ele>612</ele>
        <time>2013-06-09T07:58:24Z</time>
      </trkpt>
      <trkpt lat="45.46863" lon="4.6695">
        <ele>611</ele>
        <time>2013-06-09T07:58:27Z</time>
      </trkpt>
      <trkpt lat="45.46855" lon="4.66947">
        <ele>611</ele>
        <time>2013-06-09T07:58:31Z</time>
      </trkpt>
      <trkpt lat="45.46845" lon="4.66942">
        <ele>610</ele>
        <time>2013-06-09T07:58:34Z</time>
      </trkpt>
      <trkpt lat="45.46838" lon="4.66938">
        <ele>609</ele>
        <time>2013-06-09T07:58:37Z</time>
      </trkpt>
      <trkpt lat="45.4683" lon="4.66935">
        <ele>608</ele>
        <time>2013-06-09T07:58:40Z</time>
      </trkpt>
      <trkpt lat="45.46822" lon="4.66933">
        <ele>607</ele>
        <time>2013-06-09T07:58:43Z</time>
      </trkpt>
      <trkpt lat="45.46814" lon="4.66932">
        <ele>605</ele>
        <time>2013-06-09T07:58:46Z</time>
      </trkpt>
      <trkpt lat="45.46806" lon="4.66933">
        <ele>604</ele>
        <time>2013-06-09T07:58:49Z</time>
      </trkpt>
      <trkpt lat="45.46798" lon="4.66935">
        <ele>603</ele>
        <time>2013-06-09T07:58:52Z</time>
      </trkpt>
      <trkpt lat="45.46791" lon="4.66939">
        <ele>602</ele>
        <time>2013-06-09T07:58:55Z</time>
      </trkpt>
      <trkpt lat="45.46784" lon="4.66945">
        <ele>601</ele>
        <time>2013-06-09T07:58:59Z</time>
      </trkpt>
      <trkpt lat="45.46777" lon="4.6695">
        <ele>600</ele>
        <time>2013-06-09T07:59:02Z</time>
      </trkpt>
      <trkpt lat="45.46768" lon="4.66959">
        <ele>598</ele>
        <time>2013-06-09T07:59:05Z</time>
      </trkpt>
      <trkpt lat="45.46762" lon="4.66965">
        <ele>597</ele>
        <time>2013-06-09T07:59:08Z</time>
      </trkpt>
      <trkpt lat="45.46754" lon="4.66972">
        <ele>597</ele>
        <time>2013-06-09T07:59:11Z</time>
      </trkpt>
      <trkpt lat="45.46748" lon="4.66978">
        <ele>597</ele>
        <time>2013-06-09T07:59:14Z</time>
      </trkpt>
      <trkpt lat="45.46742" lon="4.66985">
        <ele>597</ele>
        <time>2013-06-09T07:59:17Z</time>
      </trkpt>
      <trkpt lat="45.46737" lon="4.66992">
        <ele>597</ele>
        <time>2013-06-09T07:59:20Z</time>
      </trkpt>
      <trkpt lat="45.46732" lon="4.67">
        <ele>597</ele>
        <time>2013-06-09T07:59:23Z</time>
      </trkpt>
      <trkpt lat="45.46725" lon="4.67008">
        <ele>597</ele>
        <time>2013-06-09T07:59:26Z</time>
      </trkpt>
      <trkpt lat="45.4672" lon="4.67017">
        <ele>597</ele>
        <time>2013-06-09T07:59:29Z</time>
      </trkpt>
      <trkpt lat="45.46714" lon="4.67026">
        <ele>597</ele>
        <time>2013-06-09T07:59:32Z</time>
      </trkpt>
      <trkpt lat="45.46709" lon="4.67033">
        <ele>597</ele>
        <time>2013-06-09T07:59:35Z</time>
      </trkpt>
      <trkpt lat="45.46703" lon="4.67042">
        <ele>597</ele>
        <time>2013-06-09T07:59:38Z</time>
      </trkpt>
      <trkpt lat="45.46697" lon="4.6705">
        <ele>597</ele>
        <time>2013-06-09T07:59:41Z</time>
      </trkpt>
      <trkpt lat="45.46691" lon="4.67057">
        <ele>597</ele>
        <time>2013-06-09T07:59:44Z</time>
      </trkpt>
      <trkpt lat="45.46685" lon="4.67061">
        <ele>597</ele>
        <time>2013-06-09T07:59:47Z</time>
      </trkpt>
      <trkpt lat="45.46678" lon="4.67063">
        <ele>597</ele>
        <time>2013-06-09T07:59:50Z</time>
      </trkpt>
      <trkpt lat="45.46671" lon="4.67066">
        <ele>597</ele>
        <time>2013-06-09T07:59:53Z</time>
      </trkpt>
      <trkpt lat="45.46663" lon="4.67069">
        <ele>597</ele>
        <time>2013-06-09T07:59:56Z</time>
      </trkpt>
      <trkpt lat="45.46656" lon="4.6707">
        <ele>597</ele>
        <time>2013-06-09T07:59:59Z</time>
      </trkpt>
      <trkpt lat="45.46651" lon="4.67068">
        <ele>596</ele>
        <time>2013-06-09T08:00:02Z</time>
      </trkpt>
      <trkpt lat="45.46646" lon="4.67064">
        <ele>595</ele>
        <time>2013-06-09T08:00:05Z</time>
      </trkpt>
      <trkpt lat="45.46644" lon="4.6706">
        <ele>595</ele>
        <time>2013-06-09T08:00:08Z</time>
      </trkpt>
      <trkpt lat="45.46643" lon="4.6705">
        <ele>594</ele>
        <time>2013-06-09T08:00:11Z</time>
      </trkpt>
      <trkpt lat="45.46644" lon="4.6704">
        <ele>593</ele>
        <time>2013-06-09T08:00:14Z</time>
      </trkpt>
      <trkpt lat="45.46644" lon="4.67029">
        <ele>592</ele>
        <time>2013-06-09T08:00:17Z</time>
      </trkpt>
      <trkpt lat="45.46646" lon="4.67019">
        <ele>591</ele>
        <time>2013-06-09T08:00:21Z</time>
      </trkpt>
      <trkpt lat="45.46646" lon="4.67007">
        <ele>591</ele>
        <time>2013-06-09T08:00:24Z</time>
      </trkpt>
      <trkpt lat="45.46647" lon="4.66999">
        <ele>590</ele>
        <time>2013-06-09T08:00:27Z</time>
      </trkpt>
      <trkpt lat="45.46648" lon="4.66989">
        <ele>589</ele>
        <time>2013-06-09T08:00:31Z</time>
      </trkpt>
      <trkpt lat="45.46649" lon="4.66976">
        <ele>587</ele>
        <time>2013-06-09T08:00:34Z</time>
      </trkpt>
      <trkpt lat="45.46649" lon="4.66966">
        <ele>586</ele>
        <time>2013-06-09T08:00:37Z</time>
      </trkpt>
      <trkpt lat="45.46649" lon="4.66958">
        <ele>585</ele>
        <time>2013-06-09T08:00:40Z</time>
      </trkpt>
      <trkpt lat="45.4665" lon="4.66949">
        <ele>583</ele>
        <time>2013-06-09T08:00:43Z</time>
      </trkpt>
      <trkpt lat="45.46651" lon="4.6694">
        <ele>582</ele>
        <time>2013-06-09T08:00:46Z</time>
      </trkpt>
      <trkpt lat="45.4665" lon="4.66932">
        <ele>580</ele>
        <time>2013-06-09T08:00:49Z</time>
      </trkpt>
      <trkpt lat="45.4665" lon="4.66922">
        <ele>579</ele>
        <time>2013-06-09T08:00:52Z</time>
      </trkpt>
      <trkpt lat="45.46649" lon="4.66912">
        <ele>579</ele>
        <time>2013-06-09T08:00:55Z</time>
      </trkpt>
      <trkpt lat="45.46652" lon="4.66905">
        <ele>579</ele>
        <time>2013-06-09T08:00:58Z</time>
      </trkpt>
      <trkpt lat="45.46653" lon="4.66898">
        <ele>578</ele>
        <time>2013-06-09T08:01:01Z</time>
      </trkpt>
      <trkpt lat="45.4665" lon="4.66888">
        <ele>577</ele>
        <time>2013-06-09T08:01:04Z</time>
      </trkpt>
      <trkpt lat="45.4665" lon="4.66879">
        <ele>576</ele>
        <time>2013-06-09T08:01:07Z</time>
      </trkpt>
      <trkpt lat="45.4665" lon="4.66869">
        <ele>575</ele>
        <time>2013-06-09T08:01:10Z</time>
      </trkpt>
      <trkpt lat="45.4665" lon="4.66858">
        <ele>573</ele>
        <time>2013-06-09T08:01:13Z</time>
      </trkpt>
      <trkpt lat="45.46653" lon="4.6685">
        <ele>572</ele>
        <time>2013-06-09T08:01:16Z</time>
      </trkpt>
      <trkpt lat="45.46655" lon="4.66841">
        <ele>572</ele>
        <time>2013-06-09T08:01:19Z</time>
      </trkpt>
      <trkpt lat="45.46658" lon="4.66835">
        <ele>570</ele>
        <time>2013-06-09T08:01:22Z</time>
      </trkpt>
      <trkpt lat="45.46661" lon="4.66827">
        <ele>568</ele>
        <time>2013-06-09T08:01:25Z</time>
      </trkpt>
      <trkpt lat="45.46663" lon="4.66819">
        <ele>568</ele>
        <time>2013-06-09T08:01:28Z</time>
      </trkpt>
      <trkpt lat="45.46668" lon="4.6681">
        <ele>567</ele>
        <time>2013-06-09T08:01:31Z</time>
      </trkpt>
      <trkpt lat="45.46672" lon="4.66801">
        <ele>567</ele>
        <time>2013-06-09T08:01:34Z</time>
      </trkpt>
      <trkpt lat="45.46676" lon="4.66794">
        <ele>566</ele>
        <time>2013-06-09T08:01:37Z</time>
      </trkpt>
      <trkpt lat="45.46678" lon="4.6679">
        <ele>566</ele>
        <time>2013-06-09T08:01:46Z</time>
      </trkpt>
      <trkpt lat="45.46682" lon="4.66778">
        <ele>566</ele>
        <time>2013-06-09T08:01:49Z</time>
      </trkpt>
      <trkpt lat="45.46688" lon="4.66767">
        <ele>566</ele>
        <time>2013-06-09T08:01:52Z</time>
      </trkpt>
      <trkpt lat="45.46695" lon="4.66756">
        <ele>565</ele>
        <time>2013-06-09T08:01:55Z</time>
      </trkpt>
      <trkpt lat="45.46699" lon="4.66744">
        <ele>564</ele>
        <time>2013-06-09T08:01:58Z</time>
      </trkpt>
      <trkpt lat="45.46705" lon="4.66733">
        <ele>564</ele>
        <time>2013-06-09T08:02:01Z</time>
      </trkpt>
      <trkpt lat="45.46712" lon="4.66722">
        <ele>563</ele>
        <time>2013-06-09T08:02:04Z</time>
      </trkpt>
      <trkpt lat="45.46719" lon="4.66712">
        <ele>562</ele>
        <time>2013-06-09T08:02:07Z</time>
      </trkpt>
      <trkpt lat="45.46726" lon="4.66703">
        <ele>561</ele>
        <time>2013-06-09T08:02:10Z</time>
      </trkpt>
      <trkpt lat="45.46733" lon="4.66695">
        <ele>560</ele>
        <time>2013-06-09T08:02:13Z</time>
      </trkpt>
      <trkpt lat="45.46742" lon="4.66688">
        <ele>560</ele>
        <time>2013-06-09T08:02:16Z</time>
      </trkpt>
      <trkpt lat="45.4675" lon="4.66682">
        <ele>559</ele>
        <time>2013-06-09T08:02:19Z</time>
      </trkpt>
      <trkpt lat="45.46759" lon="4.66678">
        <ele>559</ele>
        <time>2013-06-09T08:02:22Z</time>
      </trkpt>
      <trkpt lat="45.46767" lon="4.66672">
        <ele>559</ele>
        <time>2013-06-09T08:02:25Z</time>
      </trkpt>
      <trkpt lat="45.46775" lon="4.66667">
        <ele>558</ele>
        <time>2013-06-09T08:02:28Z</time>
      </trkpt>
      <trkpt lat="45.46782" lon="4.66658">
        <ele>557</ele>
        <time>2013-06-09T08:02:31Z</time>
      </trkpt>
      <trkpt lat="45.46786" lon="4.66648">
        <ele>556</ele>
        <time>2013-06-09T08:02:34Z</time>
      </trkpt>
      <trkpt lat="45.4679" lon="4.66639">
        <ele>555</ele>
        <time>2013-06-09T08:02:37Z</time>
      </trkpt>
      <trkpt lat="45.46794" lon="4.66629">
        <ele>555</ele>
        <time>2013-06-09T08:02:40Z</time>
      </trkpt>
      <trkpt lat="45.46799" lon="4.66617">
        <ele>555</ele>
        <time>2013-06-09T08:02:43Z</time>
      </trkpt>
      <trkpt lat="45.468" lon="4.666">
        <ele>555</ele>
        <time>2013-06-09T08:02:46Z</time>
      </trkpt>
      <trkpt lat="45.46803" lon="4.6659">
        <ele>555</ele>
        <time>2013-06-09T08:02:49Z</time>
      </trkpt>
      <trkpt lat="45.46808" lon="4.6658">
        <ele>555</ele>
        <time>2013-06-09T08:02:52Z</time>
      </trkpt>
      <trkpt lat="45.46813" lon="4.6657">
        <ele>554</ele>
        <time>2013-06-09T08:02:55Z</time>
      </trkpt>
      <trkpt lat="45.46815" lon="4.66559">
        <ele>553</ele>
        <time>2013-06-09T08:02:58Z</time>
      </trkpt>
      <trkpt lat="45.46818" lon="4.66548">
        <ele>551</ele>
        <time>2013-06-09T08:03:02Z</time>
      </trkpt>
      <trkpt lat="45.46822" lon="4.66535">
        <ele>550</ele>
        <time>2013-06-09T08:03:05Z</time>
      </trkpt>
      <trkpt lat="45.46824" lon="4.66524">
        <ele>549</ele>
        <time>2013-06-09T08:03:08Z</time>
      </trkpt>
      <trkpt lat="45.46826" lon="4.66517">
        <ele>549</ele>
        <time>2013-06-09T08:03:11Z</time>
      </trkpt>
      <trkpt lat="45.46825" lon="4.66512">
        <ele>549</ele>
        <time>2013-06-09T08:03:15Z</time>
      </trkpt>
      <trkpt lat="45.46821" lon="4.6651">
        <ele>549</ele>
        <time>2013-06-09T08:03:19Z</time>
      </trkpt>
      <trkpt lat="45.46817" lon="4.66509">
        <ele>549</ele>
        <time>2013-06-09T08:03:22Z</time>
      </trkpt>
      <trkpt lat="45.46812" lon="4.66508">
        <ele>547</ele>
        <time>2013-06-09T08:03:25Z</time>
      </trkpt>
      <trkpt lat="45.46807" lon="4.66507">
        <ele>545</ele>
        <time>2013-06-09T08:03:28Z</time>
      </trkpt>
      <trkpt lat="45.46804" lon="4.66508">
        <ele>544</ele>
        <time>2013-06-09T08:03:32Z</time>
      </trkpt>
      <trkpt lat="45.468" lon="4.66509">
        <ele>543</ele>
        <time>2013-06-09T08:03:37Z</time>
      </trkpt>
      <trkpt lat="45.46796" lon="4.66508">
        <ele>541</ele>
        <time>2013-06-09T08:03:40Z</time>
      </trkpt>
      <trkpt lat="45.46791" lon="4.66506">
        <ele>539</ele>
        <time>2013-06-09T08:03:43Z</time>
      </trkpt>
      <trkpt lat="45.46787" lon="4.66504">
        <ele>539</ele>
        <time>2013-06-09T08:03:46Z</time>
      </trkpt>
      <trkpt lat="45.46783" lon="4.66503">
        <ele>539</ele>
        <time>2013-06-09T08:03:49Z</time>
      </trkpt>
      <trkpt lat="45.4678" lon="4.66502">
        <ele>539</ele>
        <time>2013-06-09T08:03:52Z</time>
      </trkpt>
      <trkpt lat="45.46777" lon="4.66498">
        <ele>539</ele>
        <time>2013-06-09T08:03:56Z</time>
      </trkpt>
      <trkpt lat="45.46773" lon="4.66494">
        <ele>539</ele>
        <time>2013-06-09T08:04:00Z</time>
      </trkpt>
      <trkpt lat="45.46769" lon="4.66489">
        <ele>539</ele>
        <time>2013-06-09T08:04:04Z</time>
      </trkpt>
      <trkpt lat="45.46766" lon="4.66484">
        <ele>540</ele>
        <time>2013-06-09T08:04:08Z</time>
      </trkpt>
      <trkpt lat="45.46761" lon="4.66479">
        <ele>541</ele>
        <time>2013-06-09T08:04:12Z</time>
      </trkpt>
      <trkpt lat="45.46759" lon="4.66475">
        <ele>541</ele>
        <time>2013-06-09T08:04:15Z</time>
      </trkpt>
      <trkpt lat="45.46756" lon="4.6647">
        <ele>542</ele>
        <time>2013-06-09T08:04:18Z</time>
      </trkpt>
      <trkpt lat="45.46753" lon="4.66465">
        <ele>544</ele>
        <time>2013-06-09T08:04:22Z</time>
      </trkpt>
      <trkpt lat="45.46749" lon="4.66458">
        <ele>545</ele>
        <time>2013-06-09T08:04:27Z</time>
      </trkpt>
      <trkpt lat="45.46747" lon="4.66455">
        <ele>546</ele>
        <time>2013-06-09T08:04:30Z</time>
      </trkpt>
      <trkpt lat="45.46745" lon="4.66451">
        <ele>547</ele>
        <time>2013-06-09T08:04:34Z</time>
      </trkpt>
      <trkpt lat="45.46743" lon="4.66447">
        <ele>547</ele>
        <time>2013-06-09T08:04:39Z</time>
      </trkpt>
      <trkpt lat="45.46741" lon="4.66444">
        <ele>548</ele>
        <time>2013-06-09T08:04:42Z</time>
      </trkpt>
      <trkpt lat="45.46739" lon="4.66442">
        <ele>548</ele>
        <time>2013-06-09T08:04:45Z</time>
      </trkpt>
      <trkpt lat="45.46737" lon="4.66441">
        <ele>549</ele>
        <time>2013-06-09T08:04:50Z</time>
      </trkpt>
      <trkpt lat="45.46734" lon="4.66439">
        <ele>549</ele>
        <time>2013-06-09T08:04:54Z</time>
      </trkpt>
      <trkpt lat="45.46731" lon="4.66436">
        <ele>550</ele>
        <time>2013-06-09T08:04:59Z</time>
      </trkpt>
      <trkpt lat="45.46728" lon="4.66434">
        <ele>551</ele>
        <time>2013-06-09T08:05:03Z</time>
      </trkpt>
      <trkpt lat="45.46725" lon="4.66432">
        <ele>552</ele>
        <time>2013-06-09T08:05:07Z</time>
      </trkpt>
      <trkpt lat="45.46722" lon="4.6643">
        <ele>553</ele>
        <time>2013-06-09T08:05:10Z</time>
      </trkpt>
      <trkpt lat="45.46719" lon="4.66429">
        <ele>554</ele>
        <time>2013-06-09T08:05:13Z</time>
      </trkpt>
      <trkpt lat="45.46716" lon="4.66428">
        <ele>555</ele>
        <time>2013-06-09T08:05:17Z</time>
      </trkpt>
      <trkpt lat="45.46713" lon="4.66426">
        <ele>556</ele>
        <time>2013-06-09T08:05:21Z</time>
      </trkpt>
      <trkpt lat="45.4671" lon="4.66426">
        <ele>556</ele>
        <time>2013-06-09T08:05:25Z</time>
      </trkpt>
      <trkpt lat="45.46707" lon="4.66424">
        <ele>557</ele>
        <time>2013-06-09T08:05:28Z</time>
      </trkpt>
      <trkpt lat="45.46703" lon="4.66422">
        <ele>557</ele>
        <time>2013-06-09T08:05:31Z</time>
      </trkpt>
      <trkpt lat="45.46699" lon="4.6642">
        <ele>558</ele>
        <time>2013-06-09T08:05:34Z</time>
      </trkpt>
      <trkpt lat="45.46694" lon="4.66417">
        <ele>558</ele>
        <time>2013-06-09T08:05:37Z</time>
      </trkpt>
      <trkpt lat="45.4669" lon="4.66415">
        <ele>559</ele>
        <time>2013-06-09T08:05:42Z</time>
      </trkpt>
      <trkpt lat="45.46685" lon="4.66412">
        <ele>560</ele>
        <time>2013-06-09T08:05:45Z</time>
      </trkpt>
      <trkpt lat="45.46683" lon="4.66408">
        <ele>560</ele>
        <time>2013-06-09T08:05:49Z</time>
      </trkpt>
      <trkpt lat="45.46679" lon="4.66405">
        <ele>560</ele>
        <time>2013-06-09T08:05:53Z</time>
      </trkpt>
      <trkpt lat="45.46677" lon="4.66403">
        <ele>561</ele>
        <time>2013-06-09T08:05:56Z</time>
      </trkpt>
      <trkpt lat="45.46672" lon="4.66401">
        <ele>562</ele>
        <time>2013-06-09T08:06:00Z</time>
      </trkpt>
      <trkpt lat="45.46668" lon="4.66397">
        <ele>562</ele>
        <time>2013-06-09T08:06:03Z</time>
      </trkpt>
      <trkpt lat="45.46664" lon="4.66392">
        <ele>563</ele>
        <time>2013-06-09T08:06:06Z</time>
      </trkpt>
      <trkpt lat="45.46661" lon="4.66386">
        <ele>564</ele>
        <time>2013-06-09T08:06:09Z</time>
      </trkpt>
      <trkpt lat="45.46657" lon="4.6638">
        <ele>565</ele>
        <time>2013-06-09T08:06:13Z</time>
      </trkpt>
      <trkpt lat="45.46654" lon="4.66376">
        <ele>566</ele>
        <time>2013-06-09T08:06:16Z</time>
      </trkpt>
      <trkpt lat="45.46652" lon="4.66375">
        <ele>566</ele>
        <time>2013-06-09T08:06:20Z</time>
      </trkpt>
      <trkpt lat="45.4665" lon="4.66372">
        <ele>566</ele>
        <time>2013-06-09T08:06:23Z</time>
      </trkpt>
      <trkpt lat="45.46647" lon="4.66366">
        <ele>567</ele>
        <time>2013-06-09T08:06:27Z</time>
      </trkpt>
      <trkpt lat="45.46645" lon="4.6636">
        <ele>568</ele>
        <time>2013-06-09T08:06:30Z</time>
      </trkpt>
      <trkpt lat="45.46642" lon="4.66353">
        <ele>570</ele>
        <time>2013-06-09T08:06:33Z</time>
      </trkpt>
      <trkpt lat="45.4664" lon="4.66349">
        <ele>571</ele>
        <time>2013-06-09T08:06:36Z</time>
      </trkpt>
      <trkpt lat="45.46638" lon="4.66343">
        <ele>571</ele>
        <time>2013-06-09T08:06:39Z</time>
      </trkpt>
      <trkpt lat="45.46637" lon="4.66339">
        <ele>572</ele>
        <time>2013-06-09T08:06:42Z</time>
      </trkpt>
      <trkpt lat="45.46635" lon="4.66334">
        <ele>573</ele>
        <time>2013-06-09T08:06:45Z</time>
      </trkpt>
      <trkpt lat="45.46634" lon="4.6633">
        <ele>575</ele>
        <time>2013-06-09T08:06:48Z</time>
      </trkpt>
      <trkpt lat="45.46632" lon="4.66325">
        <ele>576</ele>
        <time>2013-06-09T08:06:51Z</time>
      </trkpt>
      <trkpt lat="45.4663" lon="4.66318">
        <ele>577</ele>
        <time>2013-06-09T08:06:55Z</time>
      </trkpt>
      <trkpt lat="45.46627" lon="4.66314">
        <ele>578</ele>
        <time>2013-06-09T08:06:58Z</time>
      </trkpt>
      <trkpt lat="45.46624" lon="4.66307">
        <ele>580</ele>
        <time>2013-06-09T08:07:02Z</time>
      </trkpt>
      <trkpt lat="45.46622" lon="4.66302">
        <ele>583</ele>
        <time>2013-06-09T08:07:06Z</time>
      </trkpt>
      <trkpt lat="45.46621" lon="4.66298">
        <ele>584</ele>
        <time>2013-06-09T08:07:09Z</time>
      </trkpt>
      <trkpt lat="45.46618" lon="4.66292">
        <ele>585</ele>
        <time>2013-06-09T08:07:16Z</time>
      </trkpt>
      <trkpt lat="45.46619" lon="4.66287">
        <ele>585</ele>
        <time>2013-06-09T08:07:20Z</time>
      </trkpt>
      <trkpt lat="45.46622" lon="4.66283">
        <ele>585</ele>
        <time>2013-06-09T08:07:24Z</time>
      </trkpt>
      <trkpt lat="45.46622" lon="4.66277">
        <ele>586</ele>
        <time>2013-06-09T08:07:27Z</time>
      </trkpt>
      <trkpt lat="45.46623" lon="4.66272">
        <ele>586</ele>
        <time>2013-06-09T08:07:30Z</time>
      </trkpt>
      <trkpt lat="45.46624" lon="4.66268">
        <ele>586</ele>
        <time>2013-06-09T08:07:33Z</time>
      </trkpt>
      <trkpt lat="45.46622" lon="4.66263">
        <ele>586</ele>
        <time>2013-06-09T08:07:37Z</time>
      </trkpt>
      <trkpt lat="45.4662" lon="4.66262">
        <ele>586</ele>
        <time>2013-06-09T08:07:40Z</time>
      </trkpt>
      <trkpt lat="45.46616" lon="4.66263">
        <ele>586</ele>
        <time>2013-06-09T08:07:43Z</time>
      </trkpt>
      <trkpt lat="45.46613" lon="4.66263">
        <ele>587</ele>
        <time>2013-06-09T08:07:46Z</time>
      </trkpt>
      <trkpt lat="45.4661" lon="4.66263">
        <ele>588</ele>
        <time>2013-06-09T08:07:49Z</time>
      </trkpt>
      <trkpt lat="45.46606" lon="4.6626">
        <ele>589</ele>
        <time>2013-06-09T08:07:53Z</time>
      </trkpt>
      <trkpt lat="45.46604" lon="4.66257">
        <ele>589</ele>
        <time>2013-06-09T08:07:57Z</time>
      </trkpt>
      <trkpt lat="45.46604" lon="4.66255">
        <ele>590</ele>
        <time>2013-06-09T08:08:01Z</time>
      </trkpt>
      <trkpt lat="45.46606" lon="4.66251">
        <ele>591</ele>
        <time>2013-06-09T08:08:05Z</time>
      </trkpt>
      <trkpt lat="45.46608" lon="4.6625">
        <ele>592</ele>
        <time>2013-06-09T08:08:11Z</time>
      </trkpt>
      <trkpt lat="45.46609" lon="4.66246">
        <ele>592</ele>
        <time>2013-06-09T08:08:17Z</time>
      </trkpt>
      <trkpt lat="45.46611" lon="4.66241">
        <ele>592</ele>
        <time>2013-06-09T08:08:20Z</time>
      </trkpt>
      <trkpt lat="45.46613" lon="4.66235">
        <ele>592</ele>
        <time>2013-06-09T08:08:24Z</time>
      </trkpt>
      <trkpt lat="45.46614" lon="4.6623">
        <ele>592</ele>
        <time>2013-06-09T08:08:28Z</time>
      </trkpt>
      <trkpt lat="45.46616" lon="4.66226">
        <ele>592</ele>
        <time>2013-06-09T08:08:32Z</time>
      </trkpt>
      <trkpt lat="45.46617" lon="4.66222">
        <ele>592</ele>
        <time>2013-06-09T08:08:35Z</time>
      </trkpt>
      <trkpt lat="45.46618" lon="4.66217">
        <ele>592</ele>
        <time>2013-06-09T08:08:38Z</time>
      </trkpt>
      <trkpt lat="45.46618" lon="4.66212">
        <ele>592</ele>
        <time>2013-06-09T08:08:41Z</time>
      </trkpt>
      <trkpt lat="45.46618" lon="4.66208">
        <ele>592</ele>
        <time>2013-06-09T08:08:44Z</time>
      </trkpt>
      <trkpt lat="45.46619" lon="4.66202">
        <ele>592</ele>
        <time>2013-06-09T08:08:47Z</time>
      </trkpt>
      <trkpt lat="45.46621" lon="4.66195">
        <ele>592</ele>
        <time>2013-06-09T08:08:50Z</time>
      </trkpt>
      <trkpt lat="45.46623" lon="4.66188">
        <ele>592</ele>
        <time>2013-06-09T08:08:53Z</time>
      </trkpt>
      <trkpt lat="45.46625" lon="4.6618">
        <ele>592</ele>
        <time>2013-06-09T08:08:56Z</time>
      </trkpt>
      <trkpt lat="45.46627" lon="4.66174">
        <ele>592</ele>
        <time>2013-06-09T08:08:59Z</time>
      </trkpt>
      <trkpt lat="45.46628" lon="4.66167">
        <ele>592</ele>
        <time>2013-06-09T08:09:02Z</time>
      </trkpt>
      <trkpt lat="45.46629" lon="4.66159">
        <ele>594</ele>
        <time>2013-06-09T08:09:05Z</time>
      </trkpt>
      <trkpt lat="45.46631" lon="4.6615">
        <ele>595</ele>
        <time>2013-06-09T08:09:08Z</time>
      </trkpt>
      <trkpt lat="45.46633" lon="4.66139">
        <ele>595</ele>
        <time>2013-06-09T08:09:11Z</time>
      </trkpt>
      <trkpt lat="45.46636" lon="4.66129">
        <ele>595</ele>
        <time>2013-06-09T08:09:14Z</time>
      </trkpt>
      <trkpt lat="45.46638" lon="4.66121">
        <ele>595</ele>
        <time>2013-06-09T08:09:17Z</time>
      </trkpt>
      <trkpt lat="45.46639" lon="4.6611">
        <ele>595</ele>
        <time>2013-06-09T08:09:20Z</time>
      </trkpt>
      <trkpt lat="45.4664" lon="4.66102">
        <ele>595</ele>
        <time>2013-06-09T08:09:23Z</time>
      </trkpt>
      <trkpt lat="45.46641" lon="4.66093">
        <ele>595</ele>
        <time>2013-06-09T08:09:26Z</time>
      </trkpt>
      <trkpt lat="45.46641" lon="4.66084">
        <ele>595</ele>
        <time>2013-06-09T08:09:29Z</time>
      </trkpt>
      <trkpt lat="45.46642" lon="4.66077">
        <ele>595</ele>
        <time>2013-06-09T08:09:32Z</time>
      </trkpt>
      <trkpt lat="45.46643" lon="4.66069">
        <ele>595</ele>
        <time>2013-06-09T08:09:35Z</time>
      </trkpt>
      <trkpt lat="45.46642" lon="4.6606">
        <ele>595</ele>
        <time>2013-06-09T08:09:38Z</time>
      </trkpt>
      <trkpt lat="45.46641" lon="4.66049">
        <ele>595</ele>
        <time>2013-06-09T08:09:41Z</time>
      </trkpt>
      <trkpt lat="45.46642" lon="4.6604">
        <ele>595</ele>
        <time>2013-06-09T08:09:44Z</time>
      </trkpt>
      <trkpt lat="45.46641" lon="4.66027">
        <ele>596</ele>
        <time>2013-06-09T08:09:47Z</time>
      </trkpt>
      <trkpt lat="45.46639" lon="4.66017">
        <ele>596</ele>
        <time>2013-06-09T08:09:50Z</time>
      </trkpt>
      <trkpt lat="45.46638" lon="4.66007">
        <ele>597</ele>
        <time>2013-06-09T08:09:53Z</time>
      </trkpt>
      <trkpt lat="45.46638" lon="4.65998">
        <ele>598</ele>
        <time>2013-06-09T08:09:56Z</time>
      </trkpt>
      <trkpt lat="45.4664" lon="4.65987">
        <ele>599</ele>
        <time>2013-06-09T08:09:59Z</time>
      </trkpt>
      <trkpt lat="45.46639" lon="4.6598">
        <ele>599</ele>
        <time>2013-06-09T08:10:02Z</time>
      </trkpt>
      <trkpt lat="45.46637" lon="4.6597">
        <ele>600</ele>
        <time>2013-06-09T08:10:05Z</time>
      </trkpt>
      <trkpt lat="45.46636" lon="4.65958">
        <ele>600</ele>
        <time>2013-06-09T08:10:08Z</time>
      </trkpt>
      <trkpt lat="45.46635" lon="4.65948">
        <ele>600</ele>
        <time>2013-06-09T08:10:11Z</time>
      </trkpt>
      <trkpt lat="45.46633" lon="4.65937">
        <ele>600</ele>
        <time>2013-06-09T08:10:14Z</time>
      </trkpt>
      <trkpt lat="45.46629" lon="4.65928">
        <ele>600</ele>
        <time>2013-06-09T08:10:17Z</time>
      </trkpt>
      <trkpt lat="45.46623" lon="4.6592">
        <ele>600</ele>
        <time>2013-06-09T08:10:20Z</time>
      </trkpt>
      <trkpt lat="45.46619" lon="4.65913">
        <ele>598</ele>
        <time>2013-06-09T08:10:23Z</time>
      </trkpt>
      <trkpt lat="45.46614" lon="4.65905">
        <ele>597</ele>
        <time>2013-06-09T08:10:26Z</time>
      </trkpt>
      <trkpt lat="45.4661" lon="4.65898">
        <ele>595</ele>
        <time>2013-06-09T08:10:29Z</time>
      </trkpt>
      <trkpt lat="45.46606" lon="4.6589">
        <ele>593</ele>
        <time>2013-06-09T08:10:32Z</time>
      </trkpt>
      <trkpt lat="45.46601" lon="4.65885">
        <ele>591</ele>
        <time>2013-06-09T08:10:35Z</time>
      </trkpt>
      <trkpt lat="45.46595" lon="4.65876">
        <ele>591</ele>
        <time>2013-06-09T08:10:38Z</time>
      </trkpt>
      <trkpt lat="45.46591" lon="4.65869">
        <ele>590</ele>
        <time>2013-06-09T08:10:41Z</time>
      </trkpt>
      <trkpt lat="45.46587" lon="4.65863">
        <ele>587</ele>
        <time>2013-06-09T08:10:44Z</time>
      </trkpt>
      <trkpt lat="45.46582" lon="4.65857">
        <ele>584</ele>
        <time>2013-06-09T08:10:47Z</time>
      </trkpt>
      <trkpt lat="45.46577" lon="4.65849">
        <ele>581</ele>
        <time>2013-06-09T08:10:50Z</time>
      </trkpt>
      <trkpt lat="45.46573" lon="4.6584">
        <ele>578</ele>
        <time>2013-06-09T08:10:53Z</time>
      </trkpt>
      <trkpt lat="45.46568" lon="4.65833">
        <ele>576</ele>
        <time>2013-06-09T08:10:56Z</time>
      </trkpt>
      <trkpt lat="45.46562" lon="4.65825">
        <ele>575</ele>
        <time>2013-06-09T08:10:59Z</time>
      </trkpt>
      <trkpt lat="45.46557" lon="4.65819">
        <ele>574</ele>
        <time>2013-06-09T08:11:02Z</time>
      </trkpt>
      <trkpt lat="45.46551" lon="4.65811">
        <ele>572</ele>
        <time>2013-06-09T08:11:05Z</time>
      </trkpt>
      <trkpt lat="45.46545" lon="4.65804">
        <ele>572</ele>
        <time>2013-06-09T08:11:08Z</time>
      </trkpt>
      <trkpt lat="45.46542" lon="4.65799">
        <ele>572</ele>
        <time>2013-06-09T08:11:11Z</time>
      </trkpt>
      <trkpt lat="45.46537" lon="4.65794">
        <ele>572</ele>
        <time>2013-06-09T08:11:14Z</time>
      </trkpt>
      <trkpt lat="45.46534" lon="4.65787">
        <ele>572</ele>
        <time>2013-06-09T08:11:17Z</time>
      </trkpt>
      <trkpt lat="45.4653" lon="4.65779">
        <ele>570</ele>
        <time>2013-06-09T08:11:20Z</time>
      </trkpt>
      <trkpt lat="45.46524" lon="4.65772">
        <ele>569</ele>
        <time>2013-06-09T08:11:23Z</time>
      </trkpt>
      <trkpt lat="45.46519" lon="4.65766">
        <ele>568</ele>
        <time>2013-06-09T08:11:26Z</time>
      </trkpt>
      <trkpt lat="45.46515" lon="4.6576">
        <ele>566</ele>
        <time>2013-06-09T08:11:29Z</time>
      </trkpt>
      <trkpt lat="45.4651" lon="4.65754">
        <ele>566</ele>
        <time>2013-06-09T08:11:32Z</time>
      </trkpt>
      <trkpt lat="45.46504" lon="4.65746">
        <ele>566</ele>
        <time>2013-06-09T08:11:35Z</time>
      </trkpt>
      <trkpt lat="45.465" lon="4.65738">
        <ele>566</ele>
        <time>2013-06-09T08:11:38Z</time>
      </trkpt>
      <trkpt lat="45.46496" lon="4.6573">
        <ele>566</ele>
        <time>2013-06-09T08:11:41Z</time>
      </trkpt>
      <trkpt lat="45.46492" lon="4.65725">
        <ele>565</ele>
        <time>2013-06-09T08:11:44Z</time>
      </trkpt>
      <trkpt lat="45.46488" lon="4.65718">
        <ele>565</ele>
        <time>2013-06-09T08:11:47Z</time>
      </trkpt>
      <trkpt lat="45.46483" lon="4.65711">
        <ele>564</ele>
        <time>2013-06-09T08:11:50Z</time>
      </trkpt>
      <trkpt lat="45.4648" lon="4.65705">
        <ele>562</ele>
        <time>2013-06-09T08:11:53Z</time>
      </trkpt>
      <trkpt lat="45.46474" lon="4.65698">
        <ele>560</ele>
        <time>2013-06-09T08:11:56Z</time>
      </trkpt>
      <trkpt lat="45.46469" lon="4.65692">
        <ele>559</ele>
        <time>2013-06-09T08:11:59Z</time>
      </trkpt>
      <trkpt lat="45.46466" lon="4.65685">
        <ele>558</ele>
        <time>2013-06-09T08:12:02Z</time>
      </trkpt>
      <trkpt lat="45.4646" lon="4.65677">
        <ele>556</ele>
        <time>2013-06-09T08:12:05Z</time>
      </trkpt>
      <trkpt lat="45.46453" lon="4.65668">
        <ele>555</ele>
        <time>2013-06-09T08:12:08Z</time>
      </trkpt>
      <trkpt lat="45.46446" lon="4.6566">
        <ele>555</ele>
        <time>2013-06-09T08:12:11Z</time>
      </trkpt>
      <trkpt lat="45.46441" lon="4.65652">
        <ele>555</ele>
        <time>2013-06-09T08:12:14Z</time>
      </trkpt>
      <trkpt lat="45.46438" lon="4.65644">
        <ele>555</ele>
        <time>2013-06-09T08:12:17Z</time>
      </trkpt>
      <trkpt lat="45.46432" lon="4.65639">
        <ele>555</ele>
        <time>2013-06-09T08:12:20Z</time>
      </trkpt>
      <trkpt lat="45.46429" lon="4.65631">
        <ele>555</ele>
        <time>2013-06-09T08:12:23Z</time>
      </trkpt>
      <trkpt lat="45.4643" lon="4.65623">
        <ele>556</ele>
        <time>2013-06-09T08:12:26Z</time>
      </trkpt>
      <trkpt lat="45.46432" lon="4.65613">
        <ele>558</ele>
        <time>2013-06-09T08:12:29Z</time>
      </trkpt>
      <trkpt lat="45.46434" lon="4.65604">
        <ele>559</ele>
        <time>2013-06-09T08:12:32Z</time>
      </trkpt>
      <trkpt lat="45.46435" lon="4.656">
        <ele>559</ele>
        <time>2013-06-09T08:12:35Z</time>
      </trkpt>
      <trkpt lat="45.46433" lon="4.65595">
        <ele>559</ele>
        <time>2013-06-09T08:12:38Z</time>
      </trkpt>
      <trkpt lat="45.46431" lon="4.65588">
        <ele>559</ele>
        <time>2013-06-09T08:12:41Z</time>
      </trkpt>
      <trkpt lat="45.4643" lon="4.6558">
        <ele>559</ele>
        <time>2013-06-09T08:12:44Z</time>
      </trkpt>
      <trkpt lat="45.46428" lon="4.65574">
        <ele>559</ele>
        <time>2013-06-09T08:12:47Z</time>
      </trkpt>
      <trkpt lat="45.46425" lon="4.65569">
        <ele>559</ele>
        <time>2013-06-09T08:12:50Z</time>
      </trkpt>
      <trkpt lat="45.46424" lon="4.65562">
        <ele>559</ele>
        <time>2013-06-09T08:12:53Z</time>
      </trkpt>
      <trkpt lat="45.46423" lon="4.65556">
        <ele>559</ele>
        <time>2013-06-09T08:12:56Z</time>
      </trkpt>
      <trkpt lat="45.46423" lon="4.65552">
        <ele>559</ele>
        <time>2013-06-09T08:12:59Z</time>
      </trkpt>
      <trkpt lat="45.46424" lon="4.65548">
        <ele>559</ele>
        <time>2013-06-09T08:13:02Z</time>
      </trkpt>
      <trkpt lat="45.46424" lon="4.65543">
        <ele>559</ele>
        <time>2013-06-09T08:13:05Z</time>
      </trkpt>
      <trkpt lat="45.46426" lon="4.65537">
        <ele>559</ele>
        <time>2013-06-09T08:13:08Z</time>
      </trkpt>
      <trkpt lat="45.46427" lon="4.65534">
        <ele>559</ele>
        <time>2013-06-09T08:13:11Z</time>
      </trkpt>
      <trkpt lat="45.46431" lon="4.65529">
        <ele>559</ele>
        <time>2013-06-09T08:13:15Z</time>
      </trkpt>
      <trkpt lat="45.46435" lon="4.65527">
        <ele>559</ele>
        <time>2013-06-09T08:13:19Z</time>
      </trkpt>
      <trkpt lat="45.46441" lon="4.65526">
        <ele>559</ele>
        <time>2013-06-09T08:13:23Z</time>
      </trkpt>
      <trkpt lat="45.46442" lon="4.65525">
        <ele>559</ele>
        <time>2013-06-09T08:13:26Z</time>
      </trkpt>
      <trkpt lat="45.46446" lon="4.65525">
        <ele>559</ele>
        <time>2013-06-09T08:13:29Z</time>
      </trkpt>
      <trkpt lat="45.4645" lon="4.65525">
        <ele>561</ele>
        <time>2013-06-09T08:13:32Z</time>
      </trkpt>
      <trkpt lat="45.46453" lon="4.65524">
        <ele>561</ele>
        <time>2013-06-09T08:13:35Z</time>
      </trkpt>
      <trkpt lat="45.46457" lon="4.65524">
        <ele>562</ele>
        <time>2013-06-09T08:13:38Z</time>
      </trkpt>
      <trkpt lat="45.4646" lon="4.65523">
        <ele>563</ele>
        <time>2013-06-09T08:13:42Z</time>
      </trkpt>
      <trkpt lat="45.46464" lon="4.65524">
        <ele>564</ele>
        <time>2013-06-09T08:13:46Z</time>
      </trkpt>
      <trkpt lat="45.46467" lon="4.65523">
        <ele>565</ele>
        <time>2013-06-09T08:13:49Z</time>
      </trkpt>
      <trkpt lat="45.46471" lon="4.65523">
        <ele>565</ele>
        <time>2013-06-09T08:13:52Z</time>
      </trkpt>
      <trkpt lat="45.46474" lon="4.65523">
        <ele>566</ele>
        <time>2013-06-09T08:13:56Z</time>
      </trkpt>
      <trkpt lat="45.46477" lon="4.65523">
        <ele>567</ele>
        <time>2013-06-09T08:13:59Z</time>
      </trkpt>
      <trkpt lat="45.46481" lon="4.65523">
        <ele>568</ele>
        <time>2013-06-09T08:14:02Z</time>
      </trkpt>
      <trkpt lat="45.46484" lon="4.65522">
        <ele>568</ele>
        <time>2013-06-09T08:14:05Z</time>
      </trkpt>
      <trkpt lat="45.46487" lon="4.65521">
        <ele>568</ele>
        <time>2013-06-09T08:14:08Z</time>
      </trkpt>
      <trkpt lat="45.46493" lon="4.6552">
        <ele>568</ele>
        <time>2013-06-09T08:14:12Z</time>
      </trkpt>
      <trkpt lat="45.46496" lon="4.6552">
        <ele>568</ele>
        <time>2013-06-09T08:14:15Z</time>
      </trkpt>
      <trkpt lat="45.46499" lon="4.65518">
        <ele>568</ele>
        <time>2013-06-09T08:14:18Z</time>
      </trkpt>
      <trkpt lat="45.46504" lon="4.65517">
        <ele>568</ele>
        <time>2013-06-09T08:14:22Z</time>
      </trkpt>
      <trkpt lat="45.46507" lon="4.65515">
        <ele>568</ele>
        <time>2013-06-09T08:14:25Z</time>
      </trkpt>
      <trkpt lat="45.4651" lon="4.65513">
        <ele>568</ele>
        <time>2013-06-09T08:14:28Z</time>
      </trkpt>
      <trkpt lat="45.46514" lon="4.6551">
        <ele>568</ele>
        <time>2013-06-09T08:14:31Z</time>
      </trkpt>
      <trkpt lat="45.46517" lon="4.65507">
        <ele>570</ele>
        <time>2013-06-09T08:14:35Z</time>
      </trkpt>
      <trkpt lat="45.46519" lon="4.65503">
        <ele>570</ele>
        <time>2013-06-09T08:14:38Z</time>
      </trkpt>
      <trkpt lat="45.46522" lon="4.65498">
        <ele>570</ele>
        <time>2013-06-09T08:14:42Z</time>
      </trkpt>
      <trkpt lat="45.46526" lon="4.65493">
        <ele>570</ele>
        <time>2013-06-09T08:14:46Z</time>
      </trkpt>
      <trkpt lat="45.46529" lon="4.65489">
        <ele>571</ele>
        <time>2013-06-09T08:14:50Z</time>
      </trkpt>
      <trkpt lat="45.46533" lon="4.65485">
        <ele>572</ele>
        <time>2013-06-09T08:14:54Z</time>
      </trkpt>
      <trkpt lat="45.46536" lon="4.65481">
        <ele>573</ele>
        <time>2013-06-09T08:14:58Z</time>
      </trkpt>
      <trkpt lat="45.46539" lon="4.65478">
        <ele>574</ele>
        <time>2013-06-09T08:15:01Z</time>
      </trkpt>
      <trkpt lat="45.4654" lon="4.65471">
        <ele>575</ele>
        <time>2013-06-09T08:15:04Z</time>
      </trkpt>
      <trkpt lat="45.46542" lon="4.65466">
        <ele>575</ele>
        <time>2013-06-09T08:15:07Z</time>
      </trkpt>
      <trkpt lat="45.46544" lon="4.65461">
        <ele>575</ele>
        <time>2013-06-09T08:15:10Z</time>
      </trkpt>
      <trkpt lat="45.46546" lon="4.65456">
        <ele>575</ele>
        <time>2013-06-09T08:15:13Z</time>
      </trkpt>
      <trkpt lat="45.4655" lon="4.6545">
        <ele>577</ele>
        <time>2013-06-09T08:15:17Z</time>
      </trkpt>
      <trkpt lat="45.46552" lon="4.65445">
        <ele>578</ele>
        <time>2013-06-09T08:15:20Z</time>
      </trkpt>
      <trkpt lat="45.46552" lon="4.6544">
        <ele>579</ele>
        <time>2013-06-09T08:15:23Z</time>
      </trkpt>
      <trkpt lat="45.46551" lon="4.65435">
        <ele>579</ele>
        <time>2013-06-09T08:15:26Z</time>
      </trkpt>
      <trkpt lat="45.46551" lon="4.65429">
        <ele>579</ele>
        <time>2013-06-09T08:15:29Z</time>
      </trkpt>
      <trkpt lat="45.46551" lon="4.65423">
        <ele>579</ele>
        <time>2013-06-09T08:15:32Z</time>
      </trkpt>
      <trkpt lat="45.46552" lon="4.65418">
        <ele>579</ele>
        <time>2013-06-09T08:15:35Z</time>
      </trkpt>
      <trkpt lat="45.46555" lon="4.65414">
        <ele>580</ele>
        <time>2013-06-09T08:15:39Z</time>
      </trkpt>
      <trkpt lat="45.46559" lon="4.65411">
        <ele>580</ele>
        <time>2013-06-09T08:15:42Z</time>
      </trkpt>
      <trkpt lat="45.46561" lon="4.65408">
        <ele>581</ele>
        <time>2013-06-09T08:15:45Z</time>
      </trkpt>
      <trkpt lat="45.46564" lon="4.65406">
        <ele>583</ele>
        <time>2013-06-09T08:15:48Z</time>
      </trkpt>
      <trkpt lat="45.46568" lon="4.65404">
        <ele>584</ele>
        <time>2013-06-09T08:15:51Z</time>
      </trkpt>
      <trkpt lat="45.46571" lon="4.654">
        <ele>586</ele>
        <time>2013-06-09T08:15:55Z</time>
      </trkpt>
      <trkpt lat="45.46574" lon="4.65396">
        <ele>586</ele>
        <time>2013-06-09T08:15:58Z</time>
      </trkpt>
      <trkpt lat="45.46578" lon="4.65392">
        <ele>586</ele>
        <time>2013-06-09T08:16:02Z</time>
      </trkpt>
      <trkpt lat="45.46582" lon="4.65388">
        <ele>586</ele>
        <time>2013-06-09T08:16:06Z</time>
      </trkpt>
      <trkpt lat="45.46585" lon="4.65384">
        <ele>586</ele>
        <time>2013-06-09T08:16:09Z</time>
      </trkpt>
      <trkpt lat="45.46589" lon="4.65379">
        <ele>587</ele>
        <time>2013-06-09T08:16:13Z</time>
      </trkpt>
      <trkpt lat="45.46592" lon="4.65375">
        <ele>588</ele>
        <time>2013-06-09T08:16:16Z</time>
      </trkpt>
      <trkpt lat="45.46595" lon="4.65372">
        <ele>588</ele>
        <time>2013-06-09T08:16:20Z</time>
      </trkpt>
      <trkpt lat="45.46601" lon="4.65365">
        <ele>589</ele>
        <time>2013-06-09T08:16:23Z</time>
      </trkpt>
      <trkpt lat="45.46608" lon="4.65358">
        <ele>589</ele>
        <time>2013-06-09T08:16:26Z</time>
      </trkpt>
      <trkpt lat="45.46613" lon="4.65349">
        <ele>589</ele>
        <time>2013-06-09T08:16:29Z</time>
      </trkpt>
      <trkpt lat="45.46619" lon="4.65342">
        <ele>589</ele>
        <time>2013-06-09T08:16:32Z</time>
      </trkpt>
      <trkpt lat="45.46625" lon="4.65335">
        <ele>589</ele>
        <time>2013-06-09T08:16:35Z</time>
      </trkpt>
      <trkpt lat="45.46631" lon="4.65329">
        <ele>589</ele>
        <time>2013-06-09T08:16:38Z</time>
      </trkpt>
      <trkpt lat="45.46639" lon="4.65323">
        <ele>589</ele>
        <time>2013-06-09T08:16:41Z</time>
      </trkpt>
      <trkpt lat="45.46647" lon="4.65317">
        <ele>589</ele>
        <time>2013-06-09T08:16:44Z</time>
      </trkpt>
      <trkpt lat="45.46655" lon="4.65312">
        <ele>589</ele>
        <time>2013-06-09T08:16:47Z</time>
      </trkpt>
      <trkpt lat="45.46661" lon="4.65305">
        <ele>589</ele>
        <time>2013-06-09T08:16:50Z</time>
      </trkpt>
      <trkpt lat="45.46667" lon="4.65299">
        <ele>589</ele>
        <time>2013-06-09T08:16:53Z</time>
      </trkpt>
      <trkpt lat="45.46674" lon="4.65293">
        <ele>589</ele>
        <time>2013-06-09T08:16:56Z</time>
      </trkpt>
      <trkpt lat="45.46681" lon="4.65286">
        <ele>589</ele>
        <time>2013-06-09T08:16:59Z</time>
      </trkpt>
      <trkpt lat="45.46687" lon="4.65281">
        <ele>589</ele>
        <time>2013-06-09T08:17:02Z</time>
      </trkpt>
      <trkpt lat="45.46693" lon="4.65275">
        <ele>589</ele>
        <time>2013-06-09T08:17:05Z</time>
      </trkpt>
      <trkpt lat="45.46699" lon="4.65269">
        <ele>589</ele>
        <time>2013-06-09T08:17:08Z</time>
      </trkpt>
      <trkpt lat="45.46705" lon="4.65263">
        <ele>589</ele>
        <time>2013-06-09T08:17:11Z</time>
      </trkpt>
      <trkpt lat="45.46711" lon="4.65259">
        <ele>589</ele>
        <time>2013-06-09T08:17:14Z</time>
      </trkpt>
      <trkpt lat="45.46717" lon="4.65252">
        <ele>589</ele>
        <time>2013-06-09T08:17:17Z</time>
      </trkpt>
      <trkpt lat="45.46721" lon="4.65247">
        <ele>589</ele>
        <time>2013-06-09T08:17:20Z</time>
      </trkpt>
      <trkpt lat="45.46726" lon="4.65243">
        <ele>589</ele>
        <time>2013-06-09T08:17:23Z</time>
      </trkpt>
      <trkpt lat="45.46731" lon="4.65238">
        <ele>589</ele>
        <time>2013-06-09T08:17:26Z</time>
      </trkpt>
      <trkpt lat="45.46736" lon="4.65233">
        <ele>589</ele>
        <time>2013-06-09T08:17:29Z</time>
      </trkpt>
      <trkpt lat="45.46741" lon="4.65227">
        <ele>589</ele>
        <time>2013-06-09T08:17:32Z</time>
      </trkpt>
      <trkpt lat="45.46747" lon="4.65221">
        <ele>589</ele>
        <time>2013-06-09T08:17:35Z</time>
      </trkpt>
      <trkpt lat="45.46753" lon="4.65215">
        <ele>589</ele>
        <time>2013-06-09T08:17:38Z</time>
      </trkpt>
      <trkpt lat="45.46759" lon="4.6521">
        <ele>589</ele>
        <time>2013-06-09T08:17:41Z</time>
      </trkpt>
      <trkpt lat="45.46764" lon="4.65204">
        <ele>589</ele>
        <time>2013-06-09T08:17:44Z</time>
      </trkpt>
      <trkpt lat="45.4677" lon="4.65199">
        <ele>589</ele>
        <time>2013-06-09T08:17:47Z</time>
      </trkpt>
      <trkpt lat="45.46776" lon="4.65193">
        <ele>589</ele>
        <time>2013-06-09T08:17:50Z</time>
      </trkpt>
      <trkpt lat="45.46781" lon="4.65188">
        <ele>590</ele>
        <time>2013-06-09T08:17:53Z</time>
      </trkpt>
      <trkpt lat="45.46787" lon="4.65182">
        <ele>591</ele>
        <time>2013-06-09T08:17:56Z</time>
      </trkpt>
      <trkpt lat="45.46792" lon="4.65177">
        <ele>591</ele>
        <time>2013-06-09T08:17:59Z</time>
      </trkpt>
      <trkpt lat="45.46798" lon="4.65171">
        <ele>591</ele>
        <time>2013-06-09T08:18:02Z</time>
      </trkpt>
      <trkpt lat="45.46803" lon="4.65163">
        <ele>592</ele>
        <time>2013-06-09T08:18:05Z</time>
      </trkpt>
      <trkpt lat="45.46807" lon="4.65156">
        <ele>592</ele>
        <time>2013-06-09T08:18:08Z</time>
      </trkpt>
      <trkpt lat="45.46812" lon="4.65149">
        <ele>593</ele>
        <time>2013-06-09T08:18:11Z</time>
      </trkpt>
      <trkpt lat="45.46816" lon="4.65142">
        <ele>593</ele>
        <time>2013-06-09T08:18:14Z</time>
      </trkpt>
      <trkpt lat="45.46821" lon="4.65134">
        <ele>593</ele>
        <time>2013-06-09T08:18:17Z</time>
      </trkpt>
      <trkpt lat="45.46825" lon="4.65127">
        <ele>593</ele>
        <time>2013-06-09T08:18:20Z</time>
      </trkpt>
      <trkpt lat="45.46828" lon="4.65119">
        <ele>594</ele>
        <time>2013-06-09T08:18:23Z</time>
      </trkpt>
      <trkpt lat="45.46831" lon="4.6511">
        <ele>594</ele>
        <time>2013-06-09T08:18:26Z</time>
      </trkpt>
      <trkpt lat="45.46832" lon="4.651">
        <ele>594</ele>
        <time>2013-06-09T08:18:29Z</time>
      </trkpt>
      <trkpt lat="45.46833" lon="4.65092">
        <ele>594</ele>
        <time>2013-06-09T08:18:32Z</time>
      </trkpt>
      <trkpt lat="45.46835" lon="4.65084">
        <ele>594</ele>
        <time>2013-06-09T08:18:35Z</time>
      </trkpt>
      <trkpt lat="45.46836" lon="4.65074">
        <ele>594</ele>
        <time>2013-06-09T08:18:38Z</time>
      </trkpt>
      <trkpt lat="45.46839" lon="4.65065">
        <ele>595</ele>
        <time>2013-06-09T08:18:41Z</time>
      </trkpt>
      <trkpt lat="45.46841" lon="4.65056">
        <ele>595</ele>
        <time>2013-06-09T08:18:44Z</time>
      </trkpt>
      <trkpt lat="45.46842" lon="4.65048">
        <ele>595</ele>
        <time>2013-06-09T08:18:47Z</time>
      </trkpt>
      <trkpt lat="45.46844" lon="4.65038">
        <ele>596</ele>
        <time>2013-06-09T08:18:50Z</time>
      </trkpt>
      <trkpt lat="45.46845" lon="4.65029">
        <ele>596</ele>
        <time>2013-06-09T08:18:53Z</time>
      </trkpt>
      <trkpt lat="45.46847" lon="4.65021">
        <ele>597</ele>
        <time>2013-06-09T08:18:56Z</time>
      </trkpt>
      <trkpt lat="45.4685" lon="4.65012">
        <ele>598</ele>
        <time>2013-06-09T08:18:59Z</time>
      </trkpt>
      <trkpt lat="45.46852" lon="4.65002">
        <ele>598</ele>
        <time>2013-06-09T08:19:02Z</time>
      </trkpt>
      <trkpt lat="45.46854" lon="4.64993">
        <ele>599</ele>
        <time>2013-06-09T08:19:05Z</time>
      </trkpt>
      <trkpt lat="45.46856" lon="4.64983">
        <ele>599</ele>
        <time>2013-06-09T08:19:08Z</time>
      </trkpt>
      <trkpt lat="45.46857" lon="4.64972">
        <ele>599</ele>
        <time>2013-06-09T08:19:11Z</time>
      </trkpt>
      <trkpt lat="45.46857" lon="4.64963">
        <ele>599</ele>
        <time>2013-06-09T08:19:14Z</time>
      </trkpt>
      <trkpt lat="45.46856" lon="4.64953">
        <ele>599</ele>
        <time>2013-06-09T08:19:17Z</time>
      </trkpt>
      <trkpt lat="45.46854" lon="4.64944">
        <ele>599</ele>
        <time>2013-06-09T08:19:20Z</time>
      </trkpt>
      <trkpt lat="45.46853" lon="4.64935">
        <ele>599</ele>
        <time>2013-06-09T08:19:23Z</time>
      </trkpt>
      <trkpt lat="45.46857" lon="4.64929">
        <ele>600</ele>
        <time>2013-06-09T08:19:26Z</time>
      </trkpt>
      <trkpt lat="45.46864" lon="4.64927">
        <ele>600</ele>
        <time>2013-06-09T08:19:29Z</time>
      </trkpt>
      <trkpt lat="45.46871" lon="4.64926">
        <ele>600</ele>
        <time>2013-06-09T08:19:32Z</time>
      </trkpt>
      <trkpt lat="45.46877" lon="4.64925">
        <ele>600</ele>
        <time>2013-06-09T08:19:35Z</time>
      </trkpt>
      <trkpt lat="45.46885" lon="4.64924">
        <ele>600</ele>
        <time>2013-06-09T08:19:38Z</time>
      </trkpt>
      <trkpt lat="45.46891" lon="4.64921">
        <ele>600</ele>
        <time>2013-06-09T08:19:41Z</time>
      </trkpt>
      <trkpt lat="45.46899" lon="4.64918">
        <ele>600</ele>
        <time>2013-06-09T08:19:44Z</time>
      </trkpt>
      <trkpt lat="45.46906" lon="4.64915">
        <ele>600</ele>
        <time>2013-06-09T08:19:47Z</time>
      </trkpt>
      <trkpt lat="45.46912" lon="4.6491">
        <ele>599</ele>
        <time>2013-06-09T08:19:50Z</time>
      </trkpt>
      <trkpt lat="45.46919" lon="4.64906">
        <ele>598</ele>
        <time>2013-06-09T08:19:53Z</time>
      </trkpt>
      <trkpt lat="45.46926" lon="4.64903">
        <ele>598</ele>
        <time>2013-06-09T08:19:56Z</time>
      </trkpt>
      <trkpt lat="45.46933" lon="4.64898">
        <ele>598</ele>
        <time>2013-06-09T08:19:59Z</time>
      </trkpt>
      <trkpt lat="45.46941" lon="4.64895">
        <ele>597</ele>
        <time>2013-06-09T08:20:02Z</time>
      </trkpt>
      <trkpt lat="45.46949" lon="4.6489">
        <ele>597</ele>
        <time>2013-06-09T08:20:05Z</time>
      </trkpt>
      <trkpt lat="45.46956" lon="4.64884">
        <ele>597</ele>
        <time>2013-06-09T08:20:08Z</time>
      </trkpt>
      <trkpt lat="45.46962" lon="4.64879">
        <ele>597</ele>
        <time>2013-06-09T08:20:11Z</time>
      </trkpt>
      <trkpt lat="45.46966" lon="4.64872">
        <ele>596</ele>
        <time>2013-06-09T08:20:14Z</time>
      </trkpt>
      <trkpt lat="45.46971" lon="4.64866">
        <ele>595</ele>
        <time>2013-06-09T08:20:17Z</time>
      </trkpt>
      <trkpt lat="45.46978" lon="4.6486">
        <ele>595</ele>
        <time>2013-06-09T08:20:20Z</time>
      </trkpt>
      <trkpt lat="45.46984" lon="4.64855">
        <ele>594</ele>
        <time>2013-06-09T08:20:23Z</time>
      </trkpt>
      <trkpt lat="45.46991" lon="4.64853">
        <ele>594</ele>
        <time>2013-06-09T08:20:26Z</time>
      </trkpt>
      <trkpt lat="45.46998" lon="4.64852">
        <ele>593</ele>
        <time>2013-06-09T08:20:29Z</time>
      </trkpt>
      <trkpt lat="45.47004" lon="4.64851">
        <ele>593</ele>
        <time>2013-06-09T08:20:32Z</time>
      </trkpt>
      <trkpt lat="45.4701" lon="4.64847">
        <ele>592</ele>
        <time>2013-06-09T08:20:35Z</time>
      </trkpt>
      <trkpt lat="45.47015" lon="4.64841">
        <ele>590</ele>
        <time>2013-06-09T08:20:38Z</time>
      </trkpt>
      <trkpt lat="45.47018" lon="4.64836">
        <ele>588</ele>
        <time>2013-06-09T08:20:41Z</time>
      </trkpt>
      <trkpt lat="45.47025" lon="4.64832">
        <ele>586</ele>
        <time>2013-06-09T08:20:44Z</time>
      </trkpt>
      <trkpt lat="45.47037" lon="4.64827">
        <ele>584</ele>
        <time>2013-06-09T08:20:47Z</time>
      </trkpt>
      <trkpt lat="45.47044" lon="4.6482">
        <ele>584</ele>
        <time>2013-06-09T08:20:50Z</time>
      </trkpt>
      <trkpt lat="45.47051" lon="4.64815">
        <ele>584</ele>
        <time>2013-06-09T08:20:53Z</time>
      </trkpt>
      <trkpt lat="45.47061" lon="4.64807">
        <ele>584</ele>
        <time>2013-06-09T08:20:56Z</time>
      </trkpt>
      <trkpt lat="45.4707" lon="4.64802">
        <ele>584</ele>
        <time>2013-06-09T08:20:59Z</time>
      </trkpt>
      <trkpt lat="45.47076" lon="4.648">
        <ele>584</ele>
        <time>2013-06-09T08:21:02Z</time>
      </trkpt>
      <trkpt lat="45.47082" lon="4.64798">
        <ele>584</ele>
        <time>2013-06-09T08:21:05Z</time>
      </trkpt>
      <trkpt lat="45.47088" lon="4.64798">
        <ele>582</ele>
        <time>2013-06-09T08:21:08Z</time>
      </trkpt>
      <trkpt lat="45.47093" lon="4.64798">
        <ele>580</ele>
        <time>2013-06-09T08:21:11Z</time>
      </trkpt>
      <trkpt lat="45.471" lon="4.64795">
        <ele>577</ele>
        <time>2013-06-09T08:21:14Z</time>
      </trkpt>
      <trkpt lat="45.47109" lon="4.64792">
        <ele>576</ele>
        <time>2013-06-09T08:21:17Z</time>
      </trkpt>
      <trkpt lat="45.47117" lon="4.64792">
        <ele>575</ele>
        <time>2013-06-09T08:21:20Z</time>
      </trkpt>
      <trkpt lat="45.47124" lon="4.6479">
        <ele>574</ele>
        <time>2013-06-09T08:21:23Z</time>
      </trkpt>
      <trkpt lat="45.47132" lon="4.64789">
        <ele>573</ele>
        <time>2013-06-09T08:21:26Z</time>
      </trkpt>
      <trkpt lat="45.47137" lon="4.64788">
        <ele>572</ele>
        <time>2013-06-09T08:21:29Z</time>
      </trkpt>
      <trkpt lat="45.47143" lon="4.64788">
        <ele>570</ele>
        <time>2013-06-09T08:21:32Z</time>
      </trkpt>
      <trkpt lat="45.47145" lon="4.64787">
        <ele>568</ele>
        <time>2013-06-09T08:21:35Z</time>
      </trkpt>
      <trkpt lat="45.47149" lon="4.64787">
        <ele>566</ele>
        <time>2013-06-09T08:21:38Z</time>
      </trkpt>
      <trkpt lat="45.47154" lon="4.64788">
        <ele>565</ele>
        <time>2013-06-09T08:21:41Z</time>
      </trkpt>
      <trkpt lat="45.47158" lon="4.64788">
        <ele>565</ele>
        <time>2013-06-09T08:21:44Z</time>
      </trkpt>
      <trkpt lat="45.47161" lon="4.64787">
        <ele>563</ele>
        <time>2013-06-09T08:21:47Z</time>
      </trkpt>
      <trkpt lat="45.47164" lon="4.64789">
        <ele>562</ele>
        <time>2013-06-09T08:21:50Z</time>
      </trkpt>
      <trkpt lat="45.47169" lon="4.64786">
        <ele>560</ele>
        <time>2013-06-09T08:21:53Z</time>
      </trkpt>
      <trkpt lat="45.47173" lon="4.64782">
        <ele>559</ele>
        <time>2013-06-09T08:21:56Z</time>
      </trkpt>
      <trkpt lat="45.47176" lon="4.64779">
        <ele>558</ele>
        <time>2013-06-09T08:21:59Z</time>
      </trkpt>
      <trkpt lat="45.47179" lon="4.64777">
        <ele>555</ele>
        <time>2013-06-09T08:22:02Z</time>
      </trkpt>
      <trkpt lat="45.47184" lon="4.64773">
        <ele>554</ele>
        <time>2013-06-09T08:22:05Z</time>
      </trkpt>
      <trkpt lat="45.4719" lon="4.64766">
        <ele>554</ele>
        <time>2013-06-09T08:22:08Z</time>
      </trkpt>
      <trkpt lat="45.47195" lon="4.64762">
        <ele>554</ele>
        <time>2013-06-09T08:22:11Z</time>
      </trkpt>
      <trkpt lat="45.472" lon="4.64758">
        <ele>552</ele>
        <time>2013-06-09T08:22:14Z</time>
      </trkpt>
      <trkpt lat="45.47205" lon="4.64754">
        <ele>552</ele>
        <time>2013-06-09T08:22:17Z</time>
      </trkpt>
      <trkpt lat="45.47209" lon="4.64751">
        <ele>551</ele>
        <time>2013-06-09T08:22:20Z</time>
      </trkpt>
      <trkpt lat="45.47216" lon="4.64747">
        <ele>551</ele>
        <time>2013-06-09T08:22:23Z</time>
      </trkpt>
      <trkpt lat="45.47221" lon="4.64742">
        <ele>550</ele>
        <time>2013-06-09T08:22:26Z</time>
      </trkpt>
      <trkpt lat="45.47227" lon="4.64739">
        <ele>547</ele>
        <time>2013-06-09T08:22:29Z</time>
      </trkpt>
      <trkpt lat="45.47233" lon="4.64736">
        <ele>544</ele>
        <time>2013-06-09T08:22:32Z</time>
      </trkpt>
      <trkpt lat="45.4724" lon="4.64737">
        <ele>541</ele>
        <time>2013-06-09T08:22:35Z</time>
      </trkpt>
      <trkpt lat="45.47247" lon="4.64734">
        <ele>538</ele>
        <time>2013-06-09T08:22:38Z</time>
      </trkpt>
      <trkpt lat="45.47249" lon="4.64731">
        <ele>535</ele>
        <time>2013-06-09T08:22:41Z</time>
      </trkpt>
      <trkpt lat="45.47255" lon="4.64727">
        <ele>533</ele>
        <time>2013-06-09T08:22:44Z</time>
      </trkpt>
      <trkpt lat="45.47262" lon="4.64724">
        <ele>531</ele>
        <time>2013-06-09T08:22:47Z</time>
      </trkpt>
      <trkpt lat="45.47268" lon="4.64721">
        <ele>529</ele>
        <time>2013-06-09T08:22:50Z</time>
      </trkpt>
      <trkpt lat="45.4727" lon="4.64716">
        <ele>527</ele>
        <time>2013-06-09T08:22:54Z</time>
      </trkpt>
      <trkpt lat="45.47271" lon="4.64711">
        <ele>526</ele>
        <time>2013-06-09T08:22:57Z</time>
      </trkpt>
      <trkpt lat="45.47268" lon="4.647">
        <ele>526</ele>
        <time>2013-06-09T08:23:00Z</time>
      </trkpt>
      <trkpt lat="45.47265" lon="4.64688">
        <ele>526</ele>
        <time>2013-06-09T08:23:03Z</time>
      </trkpt>
      <trkpt lat="45.47261" lon="4.64679">
        <ele>526</ele>
        <time>2013-06-09T08:23:06Z</time>
      </trkpt>
      <trkpt lat="45.47258" lon="4.64667">
        <ele>526</ele>
        <time>2013-06-09T08:23:09Z</time>
      </trkpt>
      <trkpt lat="45.47255" lon="4.64655">
        <ele>526</ele>
        <time>2013-06-09T08:23:12Z</time>
      </trkpt>
      <trkpt lat="45.47254" lon="4.64643">
        <ele>526</ele>
        <time>2013-06-09T08:23:15Z</time>
      </trkpt>
      <trkpt lat="45.4725" lon="4.64634">
        <ele>526</ele>
        <time>2013-06-09T08:23:18Z</time>
      </trkpt>
      <trkpt lat="45.47247" lon="4.64625">
        <ele>526</ele>
        <time>2013-06-09T08:23:21Z</time>
      </trkpt>
      <trkpt lat="45.47247" lon="4.64614">
        <ele>525</ele>
        <time>2013-06-09T08:23:24Z</time>
      </trkpt>
      <trkpt lat="45.47244" lon="4.64602">
        <ele>524</ele>
        <time>2013-06-09T08:23:27Z</time>
      </trkpt>
      <trkpt lat="45.4724" lon="4.6459">
        <ele>523</ele>
        <time>2013-06-09T08:23:30Z</time>
      </trkpt>
      <trkpt lat="45.47236" lon="4.64579">
        <ele>523</ele>
        <time>2013-06-09T08:23:33Z</time>
      </trkpt>
      <trkpt lat="45.47234" lon="4.64569">
        <ele>522</ele>
        <time>2013-06-09T08:23:36Z</time>
      </trkpt>
      <trkpt lat="45.47231" lon="4.64558">
        <ele>521</ele>
        <time>2013-06-09T08:23:39Z</time>
      </trkpt>
      <trkpt lat="45.47227" lon="4.64547">
        <ele>520</ele>
        <time>2013-06-09T08:23:42Z</time>
      </trkpt>
      <trkpt lat="45.47223" lon="4.64538">
        <ele>519</ele>
        <time>2013-06-09T08:23:45Z</time>
      </trkpt>
      <trkpt lat="45.47218" lon="4.64529">
        <ele>519</ele>
        <time>2013-06-09T08:23:48Z</time>
      </trkpt>
      <trkpt lat="45.47212" lon="4.64519">
        <ele>519</ele>
        <time>2013-06-09T08:23:51Z</time>
      </trkpt>
      <trkpt lat="45.47207" lon="4.64512">
        <ele>519</ele>
        <time>2013-06-09T08:23:54Z</time>
      </trkpt>
      <trkpt lat="45.47202" lon="4.64507">
        <ele>519</ele>
        <time>2013-06-09T08:23:57Z</time>
      </trkpt>
      <trkpt lat="45.47195" lon="4.64498">
        <ele>519</ele>
        <time>2013-06-09T08:24:00Z</time>
      </trkpt>
      <trkpt lat="45.4719" lon="4.6449">
        <ele>518</ele>
        <time>2013-06-09T08:24:03Z</time>
      </trkpt>
      <trkpt lat="45.47186" lon="4.64482">
        <ele>518</ele>
        <time>2013-06-09T08:24:06Z</time>
      </trkpt>
      <trkpt lat="45.47182" lon="4.64476">
        <ele>518</ele>
        <time>2013-06-09T08:24:09Z</time>
      </trkpt>
      <trkpt lat="45.47178" lon="4.64466">
        <ele>517</ele>
        <time>2013-06-09T08:24:12Z</time>
      </trkpt>
      <trkpt lat="45.47173" lon="4.64458">
        <ele>516</ele>
        <time>2013-06-09T08:24:15Z</time>
      </trkpt>
      <trkpt lat="45.47169" lon="4.64449">
        <ele>515</ele>
        <time>2013-06-09T08:24:18Z</time>
      </trkpt>
      <trkpt lat="45.47165" lon="4.64442">
        <ele>512</ele>
        <time>2013-06-09T08:24:21Z</time>
      </trkpt>
      <trkpt lat="45.4716" lon="4.64436">
        <ele>510</ele>
        <time>2013-06-09T08:24:24Z</time>
      </trkpt>
      <trkpt lat="45.47157" lon="4.64429">
        <ele>509</ele>
        <time>2013-06-09T08:24:27Z</time>
      </trkpt>
      <trkpt lat="45.47149" lon="4.64423">
        <ele>508</ele>
        <time>2013-06-09T08:24:31Z</time>
      </trkpt>
      <trkpt lat="45.47143" lon="4.64417">
        <ele>508</ele>
        <time>2013-06-09T08:24:34Z</time>
      </trkpt>
      <trkpt lat="45.47136" lon="4.6441">
        <ele>506</ele>
        <time>2013-06-09T08:24:37Z</time>
      </trkpt>
      <trkpt lat="45.47131" lon="4.64406">
        <ele>505</ele>
        <time>2013-06-09T08:24:40Z</time>
      </trkpt>
      <trkpt lat="45.47125" lon="4.64402">
        <ele>504</ele>
        <time>2013-06-09T08:24:43Z</time>
      </trkpt>
      <trkpt lat="45.47118" lon="4.64399">
        <ele>502</ele>
        <time>2013-06-09T08:24:46Z</time>
      </trkpt>
      <trkpt lat="45.47111" lon="4.64396">
        <ele>500</ele>
        <time>2013-06-09T08:24:49Z</time>
      </trkpt>
      <trkpt lat="45.47104" lon="4.64391">
        <ele>499</ele>
        <time>2013-06-09T08:24:52Z</time>
      </trkpt>
      <trkpt lat="45.47097" lon="4.64388">
        <ele>498</ele>
        <time>2013-06-09T08:24:55Z</time>
      </trkpt>
      <trkpt lat="45.47096" lon="4.64383">
        <ele>496</ele>
        <time>2013-06-09T08:24:58Z</time>
      </trkpt>
      <trkpt lat="45.47097" lon="4.64377">
        <ele>493</ele>
        <time>2013-06-09T08:25:01Z</time>
      </trkpt>
      <trkpt lat="45.47099" lon="4.64371">
        <ele>490</ele>
        <time>2013-06-09T08:25:04Z</time>
      </trkpt>
      <trkpt lat="45.47102" lon="4.64365">
        <ele>490</ele>
        <time>2013-06-09T08:25:07Z</time>
      </trkpt>
      <trkpt lat="45.47105" lon="4.6436">
        <ele>489</ele>
        <time>2013-06-09T08:25:10Z</time>
      </trkpt>
      <trkpt lat="45.47109" lon="4.64352">
        <ele>489</ele>
        <time>2013-06-09T08:25:13Z</time>
      </trkpt>
      <trkpt lat="45.47113" lon="4.64344">
        <ele>489</ele>
        <time>2013-06-09T08:25:16Z</time>
      </trkpt>
      <trkpt lat="45.47118" lon="4.64338">
        <ele>489</ele>
        <time>2013-06-09T08:25:19Z</time>
      </trkpt>
      <trkpt lat="45.4712" lon="4.64332">
        <ele>489</ele>
        <time>2013-06-09T08:25:22Z</time>
      </trkpt>
      <trkpt lat="45.47122" lon="4.64328">
        <ele>490</ele>
        <time>2013-06-09T08:25:25Z</time>
      </trkpt>
      <trkpt lat="45.47125" lon="4.64322">
        <ele>491</ele>
        <time>2013-06-09T08:25:28Z</time>
      </trkpt>
      <trkpt lat="45.47129" lon="4.64319">
        <ele>492</ele>
        <time>2013-06-09T08:25:31Z</time>
      </trkpt>
      <trkpt lat="45.47133" lon="4.64314">
        <ele>492</ele>
        <time>2013-06-09T08:25:34Z</time>
      </trkpt>
      <trkpt lat="45.47136" lon="4.64307">
        <ele>494</ele>
        <time>2013-06-09T08:25:37Z</time>
      </trkpt>
      <trkpt lat="45.47139" lon="4.64301">
        <ele>495</ele>
        <time>2013-06-09T08:25:40Z</time>
      </trkpt>
      <trkpt lat="45.47142" lon="4.64293">
        <ele>496</ele>
        <time>2013-06-09T08:25:43Z</time>
      </trkpt>
      <trkpt lat="45.47144" lon="4.64288">
        <ele>496</ele>
        <time>2013-06-09T08:25:46Z</time>
      </trkpt>
      <trkpt lat="45.47145" lon="4.64281">
        <ele>497</ele>
        <time>2013-06-09T08:25:49Z</time>
      </trkpt>
      <trkpt lat="45.47149" lon="4.64276">
        <ele>497</ele>
        <time>2013-06-09T08:25:52Z</time>
      </trkpt>
      <trkpt lat="45.47151" lon="4.64272">
        <ele>498</ele>
        <time>2013-06-09T08:25:55Z</time>
      </trkpt>
      <trkpt lat="45.47153" lon="4.64268">
        <ele>499</ele>
        <time>2013-06-09T08:25:59Z</time>
      </trkpt>
      <trkpt lat="45.47156" lon="4.64264">
        <ele>500</ele>
        <time>2013-06-09T08:26:03Z</time>
      </trkpt>
      <trkpt lat="45.47158" lon="4.6426">
        <ele>500</ele>
        <time>2013-06-09T08:26:07Z</time>
      </trkpt>
      <trkpt lat="45.4716" lon="4.64256">
        <ele>501</ele>
        <time>2013-06-09T08:26:11Z</time>
      </trkpt>
      <trkpt lat="45.47163" lon="4.64251">
        <ele>501</ele>
        <time>2013-06-09T08:26:15Z</time>
      </trkpt>
      <trkpt lat="45.47168" lon="4.64246">
        <ele>503</ele>
        <time>2013-06-09T08:26:19Z</time>
      </trkpt>
      <trkpt lat="45.47171" lon="4.64242">
        <ele>504</ele>
        <time>2013-06-09T08:26:23Z</time>
      </trkpt>
      <trkpt lat="45.47174" lon="4.64239">
        <ele>505</ele>
        <time>2013-06-09T08:26:27Z</time>
      </trkpt>
      <trkpt lat="45.47177" lon="4.64235">
        <ele>506</ele>
        <time>2013-06-09T08:26:30Z</time>
      </trkpt>
      <trkpt lat="45.47181" lon="4.64231">
        <ele>507</ele>
        <time>2013-06-09T08:26:34Z</time>
      </trkpt>
      <trkpt lat="45.47184" lon="4.64229">
        <ele>507</ele>
        <time>2013-06-09T08:26:37Z</time>
      </trkpt>
      <trkpt lat="45.47188" lon="4.64225">
        <ele>508</ele>
        <time>2013-06-09T08:26:41Z</time>
      </trkpt>
      <trkpt lat="45.47191" lon="4.64222">
        <ele>509</ele>
        <time>2013-06-09T08:26:44Z</time>
      </trkpt>
      <trkpt lat="45.47194" lon="4.64218">
        <ele>509</ele>
        <time>2013-06-09T08:26:47Z</time>
      </trkpt>
      <trkpt lat="45.47198" lon="4.64214">
        <ele>509</ele>
        <time>2013-06-09T08:26:50Z</time>
      </trkpt>
      <trkpt lat="45.47202" lon="4.6421">
        <ele>509</ele>
        <time>2013-06-09T08:26:54Z</time>
      </trkpt>
      <trkpt lat="45.47205" lon="4.64207">
        <ele>509</ele>
        <time>2013-06-09T08:26:58Z</time>
      </trkpt>
      <trkpt lat="45.47208" lon="4.64203">
        <ele>509</ele>
        <time>2013-06-09T08:27:01Z</time>
      </trkpt>
      <trkpt lat="45.47212" lon="4.64199">
        <ele>509</ele>
        <time>2013-06-09T08:27:04Z</time>
      </trkpt>
      <trkpt lat="45.47215" lon="4.64195">
        <ele>509</ele>
        <time>2013-06-09T08:27:07Z</time>
      </trkpt>
      <trkpt lat="45.47219" lon="4.64192">
        <ele>509</ele>
        <time>2013-06-09T08:27:10Z</time>
      </trkpt>
      <trkpt lat="45.47223" lon="4.64189">
        <ele>510</ele>
        <time>2013-06-09T08:27:13Z</time>
      </trkpt>
      <trkpt lat="45.47226" lon="4.64185">
        <ele>511</ele>
        <time>2013-06-09T08:27:16Z</time>
      </trkpt>
      <trkpt lat="45.4723" lon="4.6418">
        <ele>512</ele>
        <time>2013-06-09T08:27:20Z</time>
      </trkpt>
      <trkpt lat="45.47234" lon="4.64176">
        <ele>513</ele>
        <time>2013-06-09T08:27:23Z</time>
      </trkpt>
      <trkpt lat="45.47237" lon="4.64173">
        <ele>514</ele>
        <time>2013-06-09T08:27:26Z</time>
      </trkpt>
      <trkpt lat="45.47242" lon="4.64168">
        <ele>515</ele>
        <time>2013-06-09T08:27:30Z</time>
      </trkpt>
      <trkpt lat="45.47245" lon="4.64163">
        <ele>515</ele>
        <time>2013-06-09T08:27:34Z</time>
      </trkpt>
      <trkpt lat="45.47249" lon="4.64159">
        <ele>516</ele>
        <time>2013-06-09T08:27:38Z</time>
      </trkpt>
      <trkpt lat="45.47253" lon="4.64153">
        <ele>517</ele>
        <time>2013-06-09T08:27:42Z</time>
      </trkpt>
      <trkpt lat="45.47255" lon="4.64149">
        <ele>518</ele>
        <time>2013-06-09T08:27:45Z</time>
      </trkpt>
      <trkpt lat="45.47257" lon="4.64145">
        <ele>518</ele>
        <time>2013-06-09T08:27:48Z</time>
      </trkpt>
      <trkpt lat="45.47261" lon="4.64139">
        <ele>519</ele>
        <time>2013-06-09T08:27:52Z</time>
      </trkpt>
      <trkpt lat="45.47265" lon="4.64135">
        <ele>519</ele>
        <time>2013-06-09T08:27:56Z</time>
      </trkpt>
      <trkpt lat="45.47269" lon="4.64129">
        <ele>519</ele>
        <time>2013-06-09T08:28:00Z</time>
      </trkpt>
      <trkpt lat="45.47272" lon="4.64124">
        <ele>519</ele>
        <time>2013-06-09T08:28:04Z</time>
      </trkpt>
      <trkpt lat="45.47277" lon="4.64117">
        <ele>519</ele>
        <time>2013-06-09T08:28:09Z</time>
      </trkpt>
      <trkpt lat="45.47281" lon="4.64111">
        <ele>519</ele>
        <time>2013-06-09T08:28:13Z</time>
      </trkpt>
      <trkpt lat="45.47284" lon="4.64107">
        <ele>520</ele>
        <time>2013-06-09T08:28:16Z</time>
      </trkpt>
      <trkpt lat="45.47288" lon="4.64101">
        <ele>520</ele>
        <time>2013-06-09T08:28:19Z</time>
      </trkpt>
      <trkpt lat="45.47295" lon="4.64094">
        <ele>521</ele>
        <time>2013-06-09T08:28:22Z</time>
      </trkpt>
      <trkpt lat="45.47301" lon="4.64089">
        <ele>521</ele>
        <time>2013-06-09T08:28:25Z</time>
      </trkpt>
      <trkpt lat="45.47309" lon="4.64084">
        <ele>521</ele>
        <time>2013-06-09T08:28:29Z</time>
      </trkpt>
      <trkpt lat="45.47316" lon="4.64081">
        <ele>521</ele>
        <time>2013-06-09T08:28:32Z</time>
      </trkpt>
      <trkpt lat="45.47323" lon="4.64077">
        <ele>521</ele>
        <time>2013-06-09T08:28:35Z</time>
      </trkpt>
      <trkpt lat="45.47335" lon="4.64067">
        <ele>524</ele>
        <time>2013-06-09T08:28:39Z</time>
      </trkpt>
      <trkpt lat="45.47344" lon="4.6406">
        <ele>526</ele>
        <time>2013-06-09T08:28:42Z</time>
      </trkpt>
      <trkpt lat="45.47353" lon="4.64053">
        <ele>527</ele>
        <time>2013-06-09T08:28:45Z</time>
      </trkpt>
      <trkpt lat="45.47363" lon="4.64047">
        <ele>530</ele>
        <time>2013-06-09T08:28:49Z</time>
      </trkpt>
      <trkpt lat="45.47368" lon="4.64043">
        <ele>532</ele>
        <time>2013-06-09T08:28:52Z</time>
      </trkpt>
      <trkpt lat="45.47372" lon="4.64043">
        <ele>533</ele>
        <time>2013-06-09T08:28:55Z</time>
      </trkpt>
      <trkpt lat="45.47374" lon="4.64045">
        <ele>534</ele>
        <time>2013-06-09T08:28:58Z</time>
      </trkpt>
      <trkpt lat="45.47376" lon="4.64044">
        <ele>535</ele>
        <time>2013-06-09T08:29:02Z</time>
      </trkpt>
      <trkpt lat="45.4738" lon="4.64044">
        <ele>535</ele>
        <time>2013-06-09T08:29:06Z</time>
      </trkpt>
      <trkpt lat="45.47382" lon="4.64046">
        <ele>535</ele>
        <time>2013-06-09T08:29:11Z</time>
      </trkpt>
      <trkpt lat="45.47386" lon="4.64046">
        <ele>535</ele>
        <time>2013-06-09T08:29:15Z</time>
      </trkpt>
      <trkpt lat="45.47387" lon="4.64044">
        <ele>535</ele>
        <time>2013-06-09T08:29:26Z</time>
      </trkpt>
      <trkpt lat="45.47388" lon="4.64044">
        <ele>534</ele>
        <time>2013-06-09T08:29:32Z</time>
      </trkpt>
      <trkpt lat="45.4739" lon="4.64045">
        <ele>534</ele>
        <time>2013-06-09T08:29:40Z</time>
      </trkpt>
      <trkpt lat="45.47392" lon="4.64045">
        <ele>534</ele>
        <time>2013-06-09T08:29:52Z</time>
      </trkpt>
      <trkpt lat="45.47393" lon="4.64047">
        <ele>534</ele>
        <time>2013-06-09T08:29:56Z</time>
      </trkpt>
      <trkpt lat="45.47396" lon="4.64049">
        <ele>534</ele>
        <time>2013-06-09T08:30:01Z</time>
      </trkpt>
      <trkpt lat="45.47398" lon="4.64054">
        <ele>533</ele>
        <time>2013-06-09T08:30:05Z</time>
      </trkpt>
      <trkpt lat="45.474" lon="4.64058">
        <ele>532</ele>
        <time>2013-06-09T08:30:09Z</time>
      </trkpt>
      <trkpt lat="45.47404" lon="4.64062">
        <ele>531</ele>
        <time>2013-06-09T08:30:13Z</time>
      </trkpt>
      <trkpt lat="45.47407" lon="4.64066">
        <ele>531</ele>
        <time>2013-06-09T08:30:17Z</time>
      </trkpt>
      <trkpt lat="45.47411" lon="4.64071">
        <ele>531</ele>
        <time>2013-06-09T08:30:21Z</time>
      </trkpt>
      <trkpt lat="45.47416" lon="4.64077">
        <ele>530</ele>
        <time>2013-06-09T08:30:25Z</time>
      </trkpt>
      <trkpt lat="45.47419" lon="4.64081">
        <ele>530</ele>
        <time>2013-06-09T08:30:28Z</time>
      </trkpt>
      <trkpt lat="45.47424" lon="4.64088">
        <ele>529</ele>
        <time>2013-06-09T08:30:31Z</time>
      </trkpt>
      <trkpt lat="45.4743" lon="4.64096">
        <ele>527</ele>
        <time>2013-06-09T08:30:35Z</time>
      </trkpt>
      <trkpt lat="45.47433" lon="4.64102">
        <ele>526</ele>
        <time>2013-06-09T08:30:38Z</time>
      </trkpt>
      <trkpt lat="45.47437" lon="4.64107">
        <ele>525</ele>
        <time>2013-06-09T08:30:41Z</time>
      </trkpt>
      <trkpt lat="45.47443" lon="4.64116">
        <ele>524</ele>
        <time>2013-06-09T08:30:45Z</time>
      </trkpt>
      <trkpt lat="45.47448" lon="4.64123">
        <ele>523</ele>
        <time>2013-06-09T08:30:48Z</time>
      </trkpt>
      <trkpt lat="45.47453" lon="4.6413">
        <ele>523</ele>
        <time>2013-06-09T08:30:51Z</time>
      </trkpt>
      <trkpt lat="45.47459" lon="4.6414">
        <ele>521</ele>
        <time>2013-06-09T08:30:55Z</time>
      </trkpt>
      <trkpt lat="45.47465" lon="4.64147">
        <ele>521</ele>
        <time>2013-06-09T08:30:58Z</time>
      </trkpt>
      <trkpt lat="45.4747" lon="4.64155">
        <ele>520</ele>
        <time>2013-06-09T08:31:01Z</time>
      </trkpt>
      <trkpt lat="45.47477" lon="4.64163">
        <ele>518</ele>
        <time>2013-06-09T08:31:04Z</time>
      </trkpt>
      <trkpt lat="45.47481" lon="4.64173">
        <ele>517</ele>
        <time>2013-06-09T08:31:07Z</time>
      </trkpt>
      <trkpt lat="45.47487" lon="4.64181">
        <ele>516</ele>
        <time>2013-06-09T08:31:10Z</time>
      </trkpt>
      <trkpt lat="45.47493" lon="4.64189">
        <ele>514</ele>
        <time>2013-06-09T08:31:13Z</time>
      </trkpt>
      <trkpt lat="45.475" lon="4.64199">
        <ele>512</ele>
        <time>2013-06-09T08:31:17Z</time>
      </trkpt>
      <trkpt lat="45.47504" lon="4.64206">
        <ele>510</ele>
        <time>2013-06-09T08:31:20Z</time>
      </trkpt>
      <trkpt lat="45.47509" lon="4.64213">
        <ele>508</ele>
        <time>2013-06-09T08:31:23Z</time>
      </trkpt>
      <trkpt lat="45.47514" lon="4.6422">
        <ele>506</ele>
        <time>2013-06-09T08:31:26Z</time>
      </trkpt>
      <trkpt lat="45.47519" lon="4.64228">
        <ele>505</ele>
        <time>2013-06-09T08:31:29Z</time>
      </trkpt>
      <trkpt lat="45.47524" lon="4.64235">
        <ele>503</ele>
        <time>2013-06-09T08:31:32Z</time>
      </trkpt>
      <trkpt lat="45.47528" lon="4.64243">
        <ele>501</ele>
        <time>2013-06-09T08:31:35Z</time>
      </trkpt>
      <trkpt lat="45.47533" lon="4.6425">
        <ele>500</ele>
        <time>2013-06-09T08:31:38Z</time>
      </trkpt>
      <trkpt lat="45.47538" lon="4.64257">
        <ele>499</ele>
        <time>2013-06-09T08:31:41Z</time>
      </trkpt>
      <trkpt lat="45.47544" lon="4.64264">
        <ele>498</ele>
        <time>2013-06-09T08:31:44Z</time>
      </trkpt>
      <trkpt lat="45.47549" lon="4.6427">
        <ele>497</ele>
        <time>2013-06-09T08:31:47Z</time>
      </trkpt>
      <trkpt lat="45.47554" lon="4.64276">
        <ele>497</ele>
        <time>2013-06-09T08:31:50Z</time>
      </trkpt>
      <trkpt lat="45.47559" lon="4.64284">
        <ele>495</ele>
        <time>2013-06-09T08:31:53Z</time>
      </trkpt>
      <trkpt lat="45.47564" lon="4.6429">
        <ele>494</ele>
        <time>2013-06-09T08:31:56Z</time>
      </trkpt>
      <trkpt lat="45.47568" lon="4.64297">
        <ele>493</ele>
        <time>2013-06-09T08:31:59Z</time>
      </trkpt>
      <trkpt lat="45.47572" lon="4.64304">
        <ele>491</ele>
        <time>2013-06-09T08:32:02Z</time>
      </trkpt>
      <trkpt lat="45.47577" lon="4.64311">
        <ele>490</ele>
        <time>2013-06-09T08:32:05Z</time>
      </trkpt>
      <trkpt lat="45.47581" lon="4.64318">
        <ele>490</ele>
        <time>2013-06-09T08:32:08Z</time>
      </trkpt>
      <trkpt lat="45.47585" lon="4.64324">
        <ele>490</ele>
        <time>2013-06-09T08:32:11Z</time>
      </trkpt>
      <trkpt lat="45.47589" lon="4.6433">
        <ele>490</ele>
        <time>2013-06-09T08:32:14Z</time>
      </trkpt>
      <trkpt lat="45.47595" lon="4.64336">
        <ele>490</ele>
        <time>2013-06-09T08:32:17Z</time>
      </trkpt>
      <trkpt lat="45.476" lon="4.64342">
        <ele>490</ele>
        <time>2013-06-09T08:32:20Z</time>
      </trkpt>
      <trkpt lat="45.47605" lon="4.64349">
        <ele>489</ele>
        <time>2013-06-09T08:32:23Z</time>
      </trkpt>
      <trkpt lat="45.47609" lon="4.64356">
        <ele>489</ele>
        <time>2013-06-09T08:32:26Z</time>
      </trkpt>
      <trkpt lat="45.47614" lon="4.64363">
        <ele>488</ele>
        <time>2013-06-09T08:32:29Z</time>
      </trkpt>
      <trkpt lat="45.47618" lon="4.64371">
        <ele>488</ele>
        <time>2013-06-09T08:32:32Z</time>
      </trkpt>
      <trkpt lat="45.47625" lon="4.6438">
        <ele>487</ele>
        <time>2013-06-09T08:32:36Z</time>
      </trkpt>
      <trkpt lat="45.4763" lon="4.64385">
        <ele>486</ele>
        <time>2013-06-09T08:32:39Z</time>
      </trkpt>
      <trkpt lat="45.47633" lon="4.64391">
        <ele>486</ele>
        <time>2013-06-09T08:32:42Z</time>
      </trkpt>
      <trkpt lat="45.47635" lon="4.64396">
        <ele>486</ele>
        <time>2013-06-09T08:32:45Z</time>
      </trkpt>
      <trkpt lat="45.47635" lon="4.64404">
        <ele>486</ele>
        <time>2013-06-09T08:32:48Z</time>
      </trkpt>
      <trkpt lat="45.47639" lon="4.64417">
        <ele>485</ele>
        <time>2013-06-09T08:32:52Z</time>
      </trkpt>
      <trkpt lat="45.47642" lon="4.64426">
        <ele>484</ele>
        <time>2013-06-09T08:32:55Z</time>
      </trkpt>
      <trkpt lat="45.47646" lon="4.64435">
        <ele>483</ele>
        <time>2013-06-09T08:32:58Z</time>
      </trkpt>
      <trkpt lat="45.47649" lon="4.64445">
        <ele>483</ele>
        <time>2013-06-09T08:33:01Z</time>
      </trkpt>
      <trkpt lat="45.47654" lon="4.64453">
        <ele>482</ele>
        <time>2013-06-09T08:33:04Z</time>
      </trkpt>
      <trkpt lat="45.47657" lon="4.64462">
        <ele>481</ele>
        <time>2013-06-09T08:33:07Z</time>
      </trkpt>
      <trkpt lat="45.47661" lon="4.64469">
        <ele>480</ele>
        <time>2013-06-09T08:33:10Z</time>
      </trkpt>
      <trkpt lat="45.47665" lon="4.64476">
        <ele>479</ele>
        <time>2013-06-09T08:33:14Z</time>
      </trkpt>
      <trkpt lat="45.47668" lon="4.64482">
        <ele>479</ele>
        <time>2013-06-09T08:33:17Z</time>
      </trkpt>
      <trkpt lat="45.4767" lon="4.64488">
        <ele>478</ele>
        <time>2013-06-09T08:33:20Z</time>
      </trkpt>
      <trkpt lat="45.47671" lon="4.64495">
        <ele>477</ele>
        <time>2013-06-09T08:33:23Z</time>
      </trkpt>
      <trkpt lat="45.47674" lon="4.64501">
        <ele>476</ele>
        <time>2013-06-09T08:33:26Z</time>
      </trkpt>
      <trkpt lat="45.47678" lon="4.64505">
        <ele>475</ele>
        <time>2013-06-09T08:33:29Z</time>
      </trkpt>
      <trkpt lat="45.47683" lon="4.64508">
        <ele>474</ele>
        <time>2013-06-09T08:33:32Z</time>
      </trkpt>
      <trkpt lat="45.47687" lon="4.64515">
        <ele>473</ele>
        <time>2013-06-09T08:33:35Z</time>
      </trkpt>
      <trkpt lat="45.47692" lon="4.64519">
        <ele>471</ele>
        <time>2013-06-09T08:33:38Z</time>
      </trkpt>
      <trkpt lat="45.47697" lon="4.64524">
        <ele>469</ele>
        <time>2013-06-09T08:33:41Z</time>
      </trkpt>
      <trkpt lat="45.477" lon="4.6453">
        <ele>467</ele>
        <time>2013-06-09T08:33:44Z</time>
      </trkpt>
      <trkpt lat="45.47704" lon="4.64533">
        <ele>465</ele>
        <time>2013-06-09T08:33:47Z</time>
      </trkpt>
      <trkpt lat="45.47709" lon="4.64537">
        <ele>464</ele>
        <time>2013-06-09T08:33:50Z</time>
      </trkpt>
      <trkpt lat="45.47712" lon="4.6454">
        <ele>462</ele>
        <time>2013-06-09T08:33:53Z</time>
      </trkpt>
      <trkpt lat="45.47716" lon="4.64545">
        <ele>460</ele>
        <time>2013-06-09T08:33:56Z</time>
      </trkpt>
      <trkpt lat="45.47723" lon="4.6455">
        <ele>458</ele>
        <time>2013-06-09T08:34:00Z</time>
      </trkpt>
      <trkpt lat="45.47729" lon="4.64553">
        <ele>458</ele>
        <time>2013-06-09T08:34:04Z</time>
      </trkpt>
      <trkpt lat="45.47734" lon="4.64557">
        <ele>458</ele>
        <time>2013-06-09T08:34:07Z</time>
      </trkpt>
      <trkpt lat="45.47738" lon="4.6456">
        <ele>458</ele>
        <time>2013-06-09T08:34:10Z</time>
      </trkpt>
      <trkpt lat="45.47742" lon="4.64563">
        <ele>457</ele>
        <time>2013-06-09T08:34:14Z</time>
      </trkpt>
      <trkpt lat="45.47745" lon="4.64566">
        <ele>456</ele>
        <time>2013-06-09T08:34:17Z</time>
      </trkpt>
      <trkpt lat="45.47751" lon="4.64571">
        <ele>454</ele>
        <time>2013-06-09T08:34:20Z</time>
      </trkpt>
      <trkpt lat="45.47754" lon="4.64572">
        <ele>453</ele>
        <time>2013-06-09T08:34:23Z</time>
      </trkpt>
      <trkpt lat="45.47758" lon="4.64572">
        <ele>451</ele>
        <time>2013-06-09T08:34:27Z</time>
      </trkpt>
      <trkpt lat="45.47761" lon="4.64577">
        <ele>450</ele>
        <time>2013-06-09T08:34:30Z</time>
      </trkpt>
      <trkpt lat="45.47762" lon="4.64583">
        <ele>448</ele>
        <time>2013-06-09T08:34:33Z</time>
      </trkpt>
      <trkpt lat="45.47758" lon="4.6459">
        <ele>446</ele>
        <time>2013-06-09T08:34:36Z</time>
      </trkpt>
      <trkpt lat="45.47753" lon="4.64594">
        <ele>443</ele>
        <time>2013-06-09T08:34:39Z</time>
      </trkpt>
      <trkpt lat="45.47749" lon="4.64599">
        <ele>440</ele>
        <time>2013-06-09T08:34:42Z</time>
      </trkpt>
      <trkpt lat="45.47746" lon="4.64601">
        <ele>438</ele>
        <time>2013-06-09T08:34:45Z</time>
      </trkpt>
      <trkpt lat="45.47742" lon="4.64605">
        <ele>436</ele>
        <time>2013-06-09T08:34:48Z</time>
      </trkpt>
      <trkpt lat="45.47739" lon="4.64609">
        <ele>434</ele>
        <time>2013-06-09T08:34:51Z</time>
      </trkpt>
      <trkpt lat="45.47732" lon="4.64611">
        <ele>434</ele>
        <time>2013-06-09T08:34:54Z</time>
      </trkpt>
      <trkpt lat="45.4773" lon="4.64615">
        <ele>433</ele>
        <time>2013-06-09T08:34:57Z</time>
      </trkpt>
      <trkpt lat="45.47729" lon="4.64625">
        <ele>432</ele>
        <time>2013-06-09T08:35:00Z</time>
      </trkpt>
      <trkpt lat="45.47733" lon="4.64629">
        <ele>431</ele>
        <time>2013-06-09T08:35:03Z</time>
      </trkpt>
      <trkpt lat="45.47739" lon="4.64631">
        <ele>431</ele>
        <time>2013-06-09T08:35:06Z</time>
      </trkpt>
      <trkpt lat="45.47743" lon="4.64632">
        <ele>431</ele>
        <time>2013-06-09T08:35:09Z</time>
      </trkpt>
      <trkpt lat="45.4775" lon="4.64632">
        <ele>431</ele>
        <time>2013-06-09T08:35:12Z</time>
      </trkpt>
      <trkpt lat="45.47756" lon="4.64635">
        <ele>431</ele>
        <time>2013-06-09T08:35:15Z</time>
      </trkpt>
      <trkpt lat="45.47762" lon="4.64636">
        <ele>431</ele>
        <time>2013-06-09T08:35:18Z</time>
      </trkpt>
      <trkpt lat="45.47769" lon="4.64635">
        <ele>431</ele>
        <time>2013-06-09T08:35:22Z</time>
      </trkpt>
      <trkpt lat="45.47776" lon="4.64637">
        <ele>430</ele>
        <time>2013-06-09T08:35:25Z</time>
      </trkpt>
      <trkpt lat="45.47784" lon="4.64641">
        <ele>430</ele>
        <time>2013-06-09T08:35:28Z</time>
      </trkpt>
      <trkpt lat="45.47792" lon="4.64644">
        <ele>430</ele>
        <time>2013-06-09T08:35:31Z</time>
      </trkpt>
      <trkpt lat="45.47798" lon="4.64648">
        <ele>430</ele>
        <time>2013-06-09T08:35:34Z</time>
      </trkpt>
      <trkpt lat="45.47806" lon="4.64651">
        <ele>430</ele>
        <time>2013-06-09T08:35:37Z</time>
      </trkpt>
      <trkpt lat="45.47814" lon="4.64659">
        <ele>430</ele>
        <time>2013-06-09T08:35:41Z</time>
      </trkpt>
      <trkpt lat="45.47821" lon="4.64663">
        <ele>430</ele>
        <time>2013-06-09T08:35:44Z</time>
      </trkpt>
      <trkpt lat="45.47828" lon="4.64667">
        <ele>430</ele>
        <time>2013-06-09T08:35:47Z</time>
      </trkpt>
      <trkpt lat="45.47835" lon="4.64673">
        <ele>430</ele>
        <time>2013-06-09T08:35:50Z</time>
      </trkpt>
      <trkpt lat="45.47844" lon="4.64677">
        <ele>430</ele>
        <time>2013-06-09T08:35:53Z</time>
      </trkpt>
      <trkpt lat="45.47851" lon="4.6468">
        <ele>430</ele>
        <time>2013-06-09T08:35:56Z</time>
      </trkpt>
      <trkpt lat="45.47858" lon="4.64684">
        <ele>430</ele>
        <time>2013-06-09T08:35:59Z</time>
      </trkpt>
      <trkpt lat="45.47865" lon="4.64689">
        <ele>430</ele>
        <time>2013-06-09T08:36:02Z</time>
      </trkpt>
      <trkpt lat="45.47871" lon="4.64694">
        <ele>430</ele>
        <time>2013-06-09T08:36:05Z</time>
      </trkpt>
      <trkpt lat="45.47876" lon="4.64697">
        <ele>430</ele>
        <time>2013-06-09T08:36:08Z</time>
      </trkpt>
      <trkpt lat="45.47883" lon="4.64696">
        <ele>430</ele>
        <time>2013-06-09T08:36:11Z</time>
      </trkpt>
      <trkpt lat="45.47888" lon="4.647">
        <ele>430</ele>
        <time>2013-06-09T08:36:14Z</time>
      </trkpt>
      <trkpt lat="45.47893" lon="4.64703">
        <ele>430</ele>
        <time>2013-06-09T08:36:17Z</time>
      </trkpt>
      <trkpt lat="45.47896" lon="4.64702">
        <ele>429</ele>
        <time>2013-06-09T08:36:20Z</time>
      </trkpt>
      <trkpt lat="45.479" lon="4.64703">
        <ele>429</ele>
        <time>2013-06-09T08:36:24Z</time>
      </trkpt>
      <trkpt lat="45.47901" lon="4.64698">
        <ele>429</ele>
        <time>2013-06-09T08:36:28Z</time>
      </trkpt>
      <trkpt lat="45.479" lon="4.64694">
        <ele>428</ele>
        <time>2013-06-09T08:36:32Z</time>
      </trkpt>
      <trkpt lat="45.47898" lon="4.6469">
        <ele>428</ele>
        <time>2013-06-09T08:36:36Z</time>
      </trkpt>
      <trkpt lat="45.47895" lon="4.64688">
        <ele>428</ele>
        <time>2013-06-09T08:36:40Z</time>
      </trkpt>
      <trkpt lat="45.47894" lon="4.64691">
        <ele>428</ele>
        <time>2013-06-09T08:36:46Z</time>
      </trkpt>
      <trkpt lat="45.47892" lon="4.64692">
        <ele>428</ele>
        <time>2013-06-09T08:36:50Z</time>
      </trkpt>
      <trkpt lat="45.47889" lon="4.64693">
        <ele>428</ele>
        <time>2013-06-09T08:36:54Z</time>
      </trkpt>
      <trkpt lat="45.47888" lon="4.64693">
        <ele>428</ele>
        <time>2013-06-09T08:36:57Z</time>
      </trkpt>
      <trkpt lat="45.47886" lon="4.64694">
        <ele>428</ele>
        <time>2013-06-09T08:37:02Z</time>
      </trkpt>
      <trkpt lat="45.47887" lon="4.64698">
        <ele>427</ele>
        <time>2013-06-09T08:37:08Z</time>
      </trkpt>
      <trkpt lat="45.47886" lon="4.64697">
        <ele>427</ele>
        <time>2013-06-09T08:37:11Z</time>
      </trkpt>
      <trkpt lat="45.47884" lon="4.64694">
        <ele>426</ele>
        <time>2013-06-09T08:37:15Z</time>
      </trkpt>
      <trkpt lat="45.47884" lon="4.64693">
        <ele>426</ele>
        <time>2013-06-09T08:37:18Z</time>
      </trkpt>
    </trkseg>
  </trk>
</gpx>